Observation data for Doole 3WNW on 11/17/2019      Previous  Date       Current Mesonet Observations  Soil Data  Daily Summary Page  Observations in Plain Language
KDO2 170600Z 17004KT 10/03 A3001 RMK A01 T01010028  RH  061%=      5-min Rain = 0
KDO2 170601Z 17004KT 10/03 A3001 RMK A01 T01000028  RH  061%=      5-min Rain = 0
KDO2 170602Z 17004KT 10/03 A3001 RMK A01 T01000028  RH  061%=      5-min Rain = 0
KDO2 170603Z 17004KT 10/03 A30 RMK A01 T00990027  RH  061%=      5-min Rain = 0
KDO2 170604Z 17003KT 10/03 A30 RMK A01 T00970027  RH  062%=      5-min Rain = 0
KDO2 170605Z 16004KT 10/03 A30 RMK A01 T00960027  RH  062%=      5-min Rain = 0
KDO2 170606Z 16004KT 10/03 A30 RMK A01 T00990028  RH  061%=      5-min Rain = 0
KDO2 170607Z 16003KT 10/03 A30 RMK A01 T01000027  RH  060%=      5-min Rain = 0
KDO2 170608Z 16004KT 10/03 A30 RMK A01 T01010027  RH  060%=      5-min Rain = 0
KDO2 170609Z 17004KT 10/03 A30 RMK A01 T00990027  RH  061%=      5-min Rain = 0
KDO2 170610Z 16003KT 10/03 A30 RMK A01 T00990027  RH  061%=      5-min Rain = 0
KDO2 170611Z 18003KT 10/03 A30 RMK A01 T00980027  RH  061%=      5-min Rain = 0
KDO2 170612Z 14002KT 10/03 A30 RMK A01 T00980027  RH  061%=      5-min Rain = 0
KDO2 170613Z 14002KT 10/03 A30 RMK A01 T00990026  RH  061%=      5-min Rain = 0
KDO2 170614Z 12002KT 10/03 A30 RMK A01 T00990026  RH  060%=      5-min Rain = 0
KDO2 170615Z 18002KT 10/03 A30 RMK A01 T00980026  RH  061%=      5-min Rain = 0
KDO2 170616Z 18002KT 10/03 A30 RMK A01 T00970025  RH  061%=      5-min Rain = 0
KDO2 170617Z 18003KT 10/03 A30 RMK A01 T00960026  RH  061%=      5-min Rain = 0
KDO2 170618Z 16003KT 10/03 A30 RMK A01 T00960025  RH  061%=      5-min Rain = 0
KDO2 170619Z 11002KT 10/03 A30 RMK A01 T00960025  RH  062%=      5-min Rain = 0
KDO2 170620Z 18003KT 10/03 A30 RMK A01 T00950025  RH  062%=      5-min Rain = 0
KDO2 170621Z 16004KT 10/03 A30 RMK A01 T00970026  RH  061%=      5-min Rain = 0
KDO2 170622Z 17005KT 10/03 A30 RMK A01 T00990026  RH  061%=      5-min Rain = 0
KDO2 170623Z 17003KT 10/03 A30 RMK A01 T01000027  RH  060%=      5-min Rain = 0
KDO2 170624Z 17003KT 10/03 A30 RMK A01 T01010027  RH  060%=      5-min Rain = 0
KDO2 170625Z 18002KT 10/03 A30 RMK A01 T01010026  RH  060%=      5-min Rain = 0
KDO2 170626Z 18005KT 10/03 A30 RMK A01 T01010026  RH  060%=      5-min Rain = 0
KDO2 170627Z 18005KT 10/03 A30 RMK A01 T01000026  RH  060%=      5-min Rain = 0
KDO2 170628Z 17004KT 10/03 A30 RMK A01 T01010026  RH  060%=      5-min Rain = 0
KDO2 170629Z 18003KT 10/03 A30 RMK A01 T01010027  RH  060%=      5-min Rain = 0
KDO2 170630Z 18003KT 10/03 A30 RMK A01 T01010026  RH  060%=      5-min Rain = 0
KDO2 170631Z 18006KT 10/03 A30 RMK A01 T01010026  RH  060%=      5-min Rain = 0
KDO2 170632Z 18005KT 10/03 A30 RMK A01 T01030027  RH  059%=      5-min Rain = 0
KDO2 170633Z 19004KT 10/03 A30 RMK A01 T01030026  RH  059%=      5-min Rain = 0
KDO2 170634Z 19005KT 10/03 A30 RMK A01 T01010026  RH  060%=      5-min Rain = 0
KDO2 170635Z 19005KT 10/03 A30 RMK A01 T01000026  RH  060%=      5-min Rain = 0
KDO2 170636Z 19005KT 10/03 A30 RMK A01 T00990026  RH  060%=      5-min Rain = 0
KDO2 170637Z 19005KT 10/03 A30 RMK A01 T00980026  RH  061%=      5-min Rain = 0
KDO2 170638Z 20006KT 10/03 A30 RMK A01 T00960025  RH  061%=      5-min Rain = 0
KDO2 170639Z 20004KT 10/03 A30 RMK A01 T00960026  RH  062%=      5-min Rain = 0
KDO2 170640Z 19005KT 10/03 A30 RMK A01 T00960026  RH  062%=      5-min Rain = 0
KDO2 170641Z 19004KT 10/03 A30 RMK A01 T00970026  RH  061%=      5-min Rain = 0
KDO2 170642Z 20004KT 10/03 A30 RMK A01 T00970027  RH  062%=      5-min Rain = 0
KDO2 170643Z 21003KT 10/03 A30 RMK A01 T00960026  RH  062%=      5-min Rain = 0
KDO2 170644Z 21003KT 10/03 A30 RMK A01 T00950025  RH  062%=      5-min Rain = 0
KDO2 170645Z 21004KT 10/03 A30 RMK A01 T00950026  RH  062%=      5-min Rain = 0
KDO2 170646Z 22003KT 09/03 A30 RMK A01 T00940025  RH  062%=      5-min Rain = 0
KDO2 170647Z 21002KT 09/03 A30 RMK A01 T00930025  RH  062%=      5-min Rain = 0
KDO2 170648Z 22002KT 09/02 A30 RMK A01 T00920024  RH  063%=      5-min Rain = 0
KDO2 170649Z 22002KT 09/03 A30 RMK A01 T00920025  RH  063%=      5-min Rain = 0
KDO2 170650Z 21004KT 09/03 A30 RMK A01 T00910025  RH  063%=      5-min Rain = 0
KDO2 170651Z 20002KT 09/03 A30 RMK A01 T00920025  RH  063%=      5-min Rain = 0
KDO2 170652Z 23002KT 09/03 A30 RMK A01 T00930026  RH  063%=      5-min Rain = 0
KDO2 170653Z 21003KT 09/03 A30 RMK A01 T00930025  RH  063%=      5-min Rain = 0
KDO2 170654Z 21002KT 09/03 A30 RMK A01 T00940027  RH  063%=      5-min Rain = 0
KDO2 170655Z 22002KT 10/03 A30 RMK A01 T00950026  RH  062%=      5-min Rain = 0
KDO2 170656Z 20002KT 10/03 A30 RMK A01 T00950026  RH  062%=      5-min Rain = 0
KDO2 170657Z 25000KT 10/03 A30 RMK A01 T00950026  RH  062%=      5-min Rain = 0
KDO2 170658Z 31001KT 10/03 A30 RMK A01 T00950025  RH  062%=      5-min Rain = 0
KDO2 170659Z 30001KT 09/02 A30 RMK A01 T00910023  RH  062%=      5-min Rain = 0
KDO2 170700Z 25001KT 09/02 A30 RMK A01 T00870023  RH  064%=      5-min Rain = 0
KDO2 170701Z 26000KT 09/02 A30 RMK A01 T00870024  RH  065%=      5-min Rain = 0
KDO2 170702Z 00000KT 08/02 A30 RMK A01 T00840022  RH  065%=      5-min Rain = 0
KDO2 170703Z 21000KT 08/02 A30 RMK A01 T00820022  RH  066%=      5-min Rain = 0
KDO2 170704Z 00000KT 08/02 A30 RMK A01 T00810023  RH  067%=      5-min Rain = 0
KDO2 170705Z 19000KT 08/02 A30 RMK A01 T00800022  RH  067%=      5-min Rain = 0
KDO2 170706Z 22000KT 08/02 A30 RMK A01 T00790023  RH  068%=      5-min Rain = 0
KDO2 170707Z 21003KT 08/02 A3001 RMK A01 T00790023  RH  068%=      5-min Rain = 0
KDO2 170708Z 21002KT 08/02 A3001 RMK A01 T00780024  RH  068%=      5-min Rain = 0
KDO2 170709Z 22002KT 08/03 A3001 RMK A01 T00800025  RH  068%=      5-min Rain = 0
KDO2 170710Z 26002KT 08/02 A3001 RMK A01 T00820024  RH  067%=      5-min Rain = 0
KDO2 170711Z 29001KT 08/03 A3001 RMK A01 T00840025  RH  067%=      5-min Rain = 0
KDO2 170712Z 30001KT 09/03 A3001 RMK A01 T00860026  RH  066%=      5-min Rain = 0
KDO2 170713Z 33001KT 09/03 A3001 RMK A01 T00880027  RH  065%=      5-min Rain = 0
KDO2 170714Z 35003KT 09/03 A3001 RMK A01 T00900026  RH  065%=      5-min Rain = 0
KDO2 170715Z 35003KT 09/03 A3001 RMK A01 T00900025  RH  064%=      5-min Rain = 0
KDO2 170716Z 35003KT 09/02 A3001 RMK A01 T00870023  RH  064%=      5-min Rain = 0
KDO2 170717Z 35003KT 08/02 A3001 RMK A01 T00840022  RH  065%=      5-min Rain = 0
KDO2 170718Z 32003KT 08/02 A3001 RMK A01 T00820022  RH  066%=      5-min Rain = 0
KDO2 170719Z 32003KT 08/02 A3001 RMK A01 T00800022  RH  067%=      5-min Rain = 0
KDO2 170720Z 30003KT 08/02 A3001 RMK A01 T00810023  RH  067%=      5-min Rain = 0
KDO2 170721Z 29003KT 08/02 A3001 RMK A01 T00820023  RH  066%=      5-min Rain = 0
KDO2 170722Z 29003KT 08/02 A3001 RMK A01 T00820022  RH  066%=      5-min Rain = 0
KDO2 170723Z 28002KT 08/02 A3001 RMK A01 T00800021  RH  066%=      5-min Rain = 0
KDO2 170724Z 26003KT 08/02 A3001 RMK A01 T00790022  RH  067%=      5-min Rain = 0
KDO2 170725Z 27003KT 08/02 A3001 RMK A01 T00810024  RH  067%=      5-min Rain = 0
KDO2 170726Z 27002KT 08/02 A3001 RMK A01 T00840024  RH  066%=      5-min Rain = 0
KDO2 170727Z 26003KT 09/03 A3001 RMK A01 T00850025  RH  066%=      5-min Rain = 0
KDO2 170728Z 25003KT 09/03 A3001 RMK A01 T00870025  RH  065%=      5-min Rain = 0
KDO2 170729Z 26003KT 09/02 A3001 RMK A01 T00860024  RH  065%=      5-min Rain = 0
KDO2 170730Z 26004KT 09/02 A30 RMK A01 T00860024  RH  065%=      5-min Rain = 0
KDO2 170731Z 25004KT 09/02 A30 RMK A01 T00860023  RH  065%=      5-min Rain = 0
KDO2 170732Z 24004KT 08/02 A30 RMK A01 T00830022  RH  065%=      5-min Rain = 0
KDO2 170733Z 24004KT 08/02 A3001 RMK A01 T00810021  RH  066%=      5-min Rain = 0
KDO2 170734Z 24004KT 08/02 A3001 RMK A01 T00820023  RH  067%=      5-min Rain = 0
KDO2 170735Z 25004KT 08/02 A3001 RMK A01 T00830022  RH  066%=      5-min Rain = 0
KDO2 170736Z 24005KT 08/02 A3001 RMK A01 T00810021  RH  066%=      5-min Rain = 0
KDO2 170737Z 25005KT 08/02 A3001 RMK A01 T00800022  RH  067%=      5-min Rain = 0
KDO2 170738Z 25005KT 08/02 A3001 RMK A01 T00810023  RH  067%=      5-min Rain = 0
KDO2 170739Z 25005KT 08/02 A3001 RMK A01 T00800022  RH  067%=      5-min Rain = 0
KDO2 170740Z 24005KT 08/02 A3001 RMK A01 T00800023  RH  067%=      5-min Rain = 0
KDO2 170741Z 25005KT 08/02 A3001 RMK A01 T00800023  RH  067%=      5-min Rain = 0
KDO2 170742Z 24005KT 08/02 A3001 RMK A01 T00810024  RH  067%=      5-min Rain = 0
KDO2 170743Z 25005KT 08/02 A3001 RMK A01 T00830024  RH  067%=      5-min Rain = 0
KDO2 170744Z 26004KT 08/02 A3001 RMK A01 T00830024  RH  066%=      5-min Rain = 0
KDO2 170745Z 25004KT 09/03 A3001 RMK A01 T00850025  RH  066%=      5-min Rain = 0
KDO2 170746Z 26004KT 09/02 A3001 RMK A01 T00850024  RH  066%=      5-min Rain = 0
KDO2 170747Z 26004KT 08/02 A3001 RMK A01 T00830023  RH  066%=      5-min Rain = 0
KDO2 170748Z 26003KT 08/02 A3001 RMK A01 T00810022  RH  066%=      5-min Rain = 0
KDO2 170749Z 26003KT 08/02 A3001 RMK A01 T00820024  RH  067%=      5-min Rain = 0
KDO2 170750Z 25004KT 08/02 A3001 RMK A01 T00840024  RH  066%=      5-min Rain = 0
KDO2 170751Z 25004KT 09/03 A3001 RMK A01 T00850025  RH  066%=      5-min Rain = 0
KDO2 170752Z 24004KT 09/03 A3001 RMK A01 T00870025  RH  065%=      5-min Rain = 0
KDO2 170753Z 23003KT 09/03 A3001 RMK A01 T00880025  RH  065%=      5-min Rain = 0
KDO2 170754Z 23003KT 09/02 A3001 RMK A01 T00870024  RH  065%=      5-min Rain = 0
KDO2 170755Z 23004KT 09/03 A3001 RMK A01 T00890026  RH  064%=      5-min Rain = 0
KDO2 170756Z 23004KT 09/03 A3001 RMK A01 T00920026  RH  063%=      5-min Rain = 0
KDO2 170757Z 22005KT 09/03 A3001 RMK A01 T00930026  RH  063%=      5-min Rain = 0
KDO2 170758Z 22005KT 09/03 A3001 RMK A01 T00930025  RH  063%=      5-min Rain = 0
KDO2 170759Z 23004KT 09/03 A3001 RMK A01 T00930025  RH  063%=      5-min Rain = 0
KDO2 170800Z 23004KT 09/02 A3001 RMK A01 T00920024  RH  063%=      5-min Rain = 0
KDO2 170801Z 23004KT 09/02 A3001 RMK A01 T00890023  RH  063%=      5-min Rain = 0
KDO2 170802Z 24003KT 09/02 A3001 RMK A01 T00890024  RH  064%=      5-min Rain = 0
KDO2 170803Z 24004KT 09/02 A3001 RMK A01 T00890024  RH  064%=      5-min Rain = 0
KDO2 170804Z 24004KT 09/02 A3001 RMK A01 T00880024  RH  064%=      5-min Rain = 0
KDO2 170805Z 25003KT 09/02 A3001 RMK A01 T00860023  RH  064%=      5-min Rain = 0
KDO2 170806Z 27003KT 08/02 A3001 RMK A01 T00830021  RH  065%=      5-min Rain = 0
KDO2 170807Z 28003KT 08/02 A3001 RMK A01 T00790020  RH  066%=      5-min Rain = 0
KDO2 170808Z 29003KT 08/02 A3001 RMK A01 T00760020  RH  067%=      5-min Rain = 0
KDO2 170809Z 29002KT 08/02 A3001 RMK A01 T00750019  RH  068%=      5-min Rain = 0
KDO2 170810Z 29003KT 07/02 A3001 RMK A01 T00720018  RH  069%=      5-min Rain = 0
KDO2 170811Z 31003KT 07/02 A3001 RMK A01 T00690017  RH  070%=      5-min Rain = 0
KDO2 170812Z 30003KT 07/02 A3001 RMK A01 T00650016  RH  071%=      5-min Rain = 0
KDO2 170813Z 30003KT 06/02 A3001 RMK A01 T00620015  RH  072%=      5-min Rain = 0
KDO2 170814Z 30003KT 06/01 A3001 RMK A01 T00580014  RH  074%=      5-min Rain = 0
KDO2 170815Z 29003KT 06/02 A3001 RMK A01 T00560015  RH  075%=      5-min Rain = 0
KDO2 170816Z 30003KT 06/02 A3001 RMK A01 T00550016  RH  076%=      5-min Rain = 0
KDO2 170817Z 28003KT 06/02 A3001 RMK A01 T00550018  RH  077%=      5-min Rain = 0
KDO2 170818Z 27003KT 06/02 A3001 RMK A01 T00600021  RH  076%=      5-min Rain = 0
KDO2 170819Z 25004KT 06/02 A3001 RMK A01 T00640022  RH  074%=      5-min Rain = 0
KDO2 170820Z 24004KT 07/02 A3001 RMK A01 T00670022  RH  073%=      5-min Rain = 0
KDO2 170821Z 25003KT 07/02 A3001 RMK A01 T00700023  RH  072%=      5-min Rain = 0
KDO2 170822Z 25003KT 07/03 A3001 RMK A01 T00740025  RH  071%=      5-min Rain = 0
KDO2 170823Z 25003KT 08/03 A3001 RMK A01 T00770025  RH  070%=      5-min Rain = 0
KDO2 170824Z 24003KT 08/03 A3001 RMK A01 T00800025  RH  068%=      5-min Rain = 0
KDO2 170825Z 25003KT 08/03 A3001 RMK A01 T00810025  RH  067%=      5-min Rain = 0
KDO2 170826Z 26003KT 08/02 A3001 RMK A01 T00820024  RH  067%=      5-min Rain = 0
KDO2 170827Z 26003KT 08/02 A3001 RMK A01 T00830024  RH  066%=      5-min Rain = 0
KDO2 170828Z 26003KT 08/02 A3001 RMK A01 T00830023  RH  066%=      5-min Rain = 0
KDO2 170829Z 27003KT 08/02 A3001 RMK A01 T00820022  RH  066%=      5-min Rain = 0
KDO2 170830Z 27002KT 08/02 A3001 RMK A01 T00790020  RH  066%=      5-min Rain = 0
KDO2 170831Z 27003KT 08/02 A3001 RMK A01 T00780022  RH  068%=      5-min Rain = 0
KDO2 170832Z 28003KT 08/02 A3001 RMK A01 T00770021  RH  067%=      5-min Rain = 0
KDO2 170833Z 30002KT 07/01 A3001 RMK A01 T00720014  RH  067%=      5-min Rain = 0
KDO2 170834Z 30002KT 06/01 A3001 RMK A01 T00640013  RH  070%=      5-min Rain = 0
KDO2 170835Z 28002KT 06/02 A3001 RMK A01 T00620016  RH  072%=      5-min Rain = 0
KDO2 170836Z 28002KT 06/02 A3001 RMK A01 T00610016  RH  073%=      5-min Rain = 0
KDO2 170837Z 28002KT 06/02 A3001 RMK A01 T00600018  RH  074%=      5-min Rain = 0
KDO2 170838Z 27002KT 06/02 A3001 RMK A01 T00640021  RH  074%=      5-min Rain = 0
KDO2 170839Z 29002KT 07/02 A3001 RMK A01 T00660022  RH  073%=      5-min Rain = 0
KDO2 170840Z 28001KT 07/02 A3001 RMK A01 T00690021  RH  071%=      5-min Rain = 0
KDO2 170841Z 27002KT 07/02 A3001 RMK A01 T00670018  RH  071%=      5-min Rain = 0
KDO2 170842Z 28001KT 07/02 A3001 RMK A01 T00650018  RH  072%=      5-min Rain = 0
KDO2 170843Z 28001KT 06/02 A3001 RMK A01 T00630017  RH  072%=      5-min Rain = 0
KDO2 170844Z 28001KT 06/02 A3001 RMK A01 T00620016  RH  072%=      5-min Rain = 0
KDO2 170845Z 26001KT 06/02 A3001 RMK A01 T00610016  RH  073%=      5-min Rain = 0
KDO2 170846Z 26001KT 06/02 A3001 RMK A01 T00600018  RH  074%=      5-min Rain = 0
KDO2 170847Z 28001KT 06/02 A3001 RMK A01 T00600018  RH  074%=      5-min Rain = 0
KDO2 170848Z 28001KT 06/02 A3001 RMK A01 T00610020  RH  075%=      5-min Rain = 0
KDO2 170849Z 29001KT 06/02 A3001 RMK A01 T00640021  RH  074%=      5-min Rain = 0
KDO2 170850Z 29001KT 07/02 A3001 RMK A01 T00660022  RH  074%=      5-min Rain = 0
KDO2 170851Z 28001KT 07/02 A3001 RMK A01 T00670019  RH  071%=      5-min Rain = 0
KDO2 170852Z 32001KT 07/02 A3001 RMK A01 T00660020  RH  072%=      5-min Rain = 0
KDO2 170853Z 30002KT 07/02 A3001 RMK A01 T00660021  RH  073%=      5-min Rain = 0
KDO2 170854Z 32001KT 07/02 A3001 RMK A01 T00660019  RH  072%=      5-min Rain = 0
KDO2 170855Z 30002KT 06/02 A3001 RMK A01 T00640015  RH  071%=      5-min Rain = 0
KDO2 170856Z 31001KT 06/02 A3001 RMK A01 T00630016  RH  072%=      5-min Rain = 0
KDO2 170857Z 31001KT 06/02 A30 RMK A01 T00610016  RH  073%=      5-min Rain = 0
KDO2 170858Z 32001KT 06/02 A30 RMK A01 T00600017  RH  074%=      5-min Rain = 0
KDO2 170859Z 31001KT 06/02 A30 RMK A01 T00600017  RH  074%=      5-min Rain = 0
KDO2 170900Z 26000KT 06/02 A30 RMK A01 T00600019  RH  075%=      5-min Rain = 0
KDO2 170901Z 26000KT 06/02 A30 RMK A01 T00620020  RH  074%=      5-min Rain = 0
KDO2 170902Z 00000KT 06/02 A30 RMK A01 T00630018  RH  073%=      5-min Rain = 0
KDO2 170903Z 00000KT 06/02 A30 RMK A01 T00610015  RH  072%=      5-min Rain = 0
KDO2 170904Z 00000KT 06/01 A30 RMK A01 T00570013  RH  073%=      5-min Rain = 0
KDO2 170905Z 00000KT 06/02 A30 RMK A01 T00560017  RH  076%=      5-min Rain = 0
KDO2 170906Z 24000KT 06/02 A30 RMK A01 T00560015  RH  075%=      5-min Rain = 0
KDO2 170907Z 24000KT 06/02 A30 RMK A01 T00560016  RH  075%=      5-min Rain = 0
KDO2 170908Z 00000KT 06/01 A30 RMK A01 T00560014  RH  075%=      5-min Rain = 0
KDO2 170909Z 00000KT 05/01 A30 RMK A01 T00540014  RH  075%=      5-min Rain = 0
KDO2 170910Z 00000KT 05/02 A30 RMK A01 T00540016  RH  077%=      5-min Rain = 0
KDO2 170911Z 18001KT 06/02 A30 RMK A01 T00580019  RH  076%=      5-min Rain = 0
KDO2 170912Z 18001KT 06/02 A30 RMK A01 T00590016  RH  074%=      5-min Rain = 0
KDO2 170913Z 21000KT 06/02 A30 RMK A01 T00600020  RH  075%=      5-min Rain = 0
KDO2 170914Z 19000KT 07/02 A30 RMK A01 T00660020  RH  073%=      5-min Rain = 0
KDO2 170915Z 00000KT 06/02 A30 RMK A01 T00640016  RH  071%=      5-min Rain = 0
KDO2 170916Z 03000KT 06/02 A30 RMK A01 T00630017  RH  072%=      5-min Rain = 0
KDO2 170917Z 02001KT 06/01 A30 RMK A01 T00560008  RH  071%=      5-min Rain = 0
KDO2 170918Z 04001KT 05/01 A30 RMK A01 T00470005  RH  074%=      5-min Rain = 0
KDO2 170919Z 06001KT 04/01 A30 RMK A01 T00430007  RH  078%=      5-min Rain = 0
KDO2 170920Z 06002KT 04/01 A30 RMK A01 T00410010  RH  080%=      5-min Rain = 0
KDO2 170921Z 06001KT 04/01 A30 RMK A01 T00410010  RH  080%=      5-min Rain = 0
KDO2 170922Z 06001KT 04/01 A30 RMK A01 T00400011  RH  081%=      5-min Rain = 0
KDO2 170923Z 06001KT 04/01 A30 RMK A01 T00400011  RH  081%=      5-min Rain = 0
KDO2 170924Z 06001KT 04/01 A30 RMK A01 T00390010  RH  081%=      5-min Rain = 0
KDO2 170925Z 06001KT 04/01 A30 RMK A01 T00390012  RH  082%=      5-min Rain = 0
KDO2 170926Z 05001KT 04/01 A30 RMK A01 T00390010  RH  081%=      5-min Rain = 0
KDO2 170927Z 07001KT 04/01 A30 RMK A01 T00390011  RH  082%=      5-min Rain = 0
KDO2 170928Z 07001KT 04/01 A30 RMK A01 T00390012  RH  083%=      5-min Rain = 0
KDO2 170929Z 07000KT 04/01 A30 RMK A01 T00400014  RH  083%=      5-min Rain = 0
KDO2 170930Z 11000KT 04/02 A30 RMK A01 T00420015  RH  083%=      5-min Rain = 0
KDO2 170931Z 13001KT 04/02 A30 RMK A01 T00420016  RH  083%=      5-min Rain = 0
KDO2 170932Z 15001KT 04/02 A30 RMK A01 T00440015  RH  082%=      5-min Rain = 0
KDO2 170933Z 15001KT 05/02 A30 RMK A01 T00450017  RH  082%=      5-min Rain = 0
KDO2 170934Z 15001KT 05/02 A30 RMK A01 T00460016  RH  081%=      5-min Rain = 0
KDO2 170935Z 16001KT 05/01 A30 RMK A01 T00460013  RH  079%=      5-min Rain = 0
KDO2 170936Z 16001KT 05/01 A30 RMK A01 T00460014  RH  080%=      5-min Rain = 0
KDO2 170937Z 16001KT 05/02 A30 RMK A01 T00470017  RH  081%=      5-min Rain = 0
KDO2 170938Z 16000KT 05/02 A30 RMK A01 T00480015  RH  079%=      5-min Rain = 0
KDO2 170939Z 14001KT 05/02 A30 RMK A01 T00480016  RH  080%=      5-min Rain = 0
KDO2 170940Z 13001KT 05/02 A30 RMK A01 T00490017  RH  080%=      5-min Rain = 0
KDO2 170941Z 10001KT 05/02 A30 RMK A01 T00500016  RH  079%=      5-min Rain = 0
KDO2 170942Z 05001KT 05/02 A30 RMK A01 T00490015  RH  078%=      5-min Rain = 0
KDO2 170943Z 03001KT 05/01 A30 RMK A01 T00470009  RH  076%=      5-min Rain = 0
KDO2 170944Z 02002KT 05/01 A30 RMK A01 T00450008  RH  077%=      5-min Rain = 0
KDO2 170945Z 01002KT 04/01 A30 RMK A01 T00420007  RH  078%=      5-min Rain = 0
KDO2 170946Z 01002KT 04/01 A30 RMK A01 T00400009  RH  080%=      5-min Rain = 0
KDO2 170947Z 01002KT 04/01 A30 RMK A01 T00400011  RH  082%=      5-min Rain = 0
KDO2 170948Z 04002KT 04/01 A30 RMK A01 T00390007  RH  080%=      5-min Rain = 0
KDO2 170949Z 04001KT 04/00 A30 RMK A01 T00350004  RH  080%=      5-min Rain = 0
KDO2 170950Z 03002KT 03/01 A30 RMK A01 T00330005  RH  082%=      5-min Rain = 0
KDO2 170951Z 03002KT 03/01 A30 RMK A01 T00310005  RH  083%=      5-min Rain = 0
KDO2 170952Z 06001KT 03/01 A30 RMK A01 T00310005  RH  083%=      5-min Rain = 0
KDO2 170953Z 07002KT 03/01 A30 RMK A01 T00300006  RH  084%=      5-min Rain = 0
KDO2 170954Z 07002KT 03/01 A30 RMK A01 T00320011  RH  087%=      5-min Rain = 0
KDO2 170955Z 08001KT 03/01 A30 RMK A01 T00340013  RH  086%=      5-min Rain = 0
KDO2 170956Z 04001KT 04/01 A30 RMK A01 T00360014  RH  086%=      5-min Rain = 0
KDO2 170957Z 04001KT 04/02 A3001 RMK A01 T00400016  RH  085%=      5-min Rain = 0
KDO2 170958Z 02001KT 04/02 A3001 RMK A01 T00420015  RH  083%=      5-min Rain = 0
KDO2 170959Z 01000KT 04/01 A3001 RMK A01 T00420012  RH  081%=      5-min Rain = 0
KDO2 171000Z 01001KT 04/01 A3001 RMK A01 T00430014  RH  082%=      5-min Rain = 0
KDO2 171001Z 01001KT 04/02 A3001 RMK A01 T00440015  RH  081%=      5-min Rain = 0
KDO2 171002Z 03001KT 04/01 A3001 RMK A01 T00440011  RH  079%=      5-min Rain = 0
KDO2 171003Z 03001KT 04/01 A3001 RMK A01 T00420009  RH  079%=      5-min Rain = 0
KDO2 171004Z 05002KT 04/01 A3001 RMK A01 T00400009  RH  080%=      5-min Rain = 0
KDO2 171005Z 05002KT 04/01 A3001 RMK A01 T00380009  RH  081%=      5-min Rain = 0
KDO2 171006Z 05001KT 04/01 A3001 RMK A01 T00380010  RH  082%=      5-min Rain = 0
KDO2 171007Z 05001KT 04/01 A3001 RMK A01 T00380010  RH  082%=      5-min Rain = 0
KDO2 171008Z 04001KT 04/01 A3001 RMK A01 T00360007  RH  081%=      5-min Rain = 0
KDO2 171009Z 05002KT 04/01 A3001 RMK A01 T00350007  RH  082%=      5-min Rain = 0
KDO2 171010Z 06002KT 03/01 A3001 RMK A01 T00340009  RH  083%=      5-min Rain = 0
KDO2 171011Z 06002KT 03/01 A3001 RMK A01 T00340010  RH  084%=      5-min Rain = 0
KDO2 171012Z 04002KT 03/01 A3001 RMK A01 T00340008  RH  083%=      5-min Rain = 0
KDO2 171013Z 04002KT 03/01 A3001 RMK A01 T00330006  RH  082%=      5-min Rain = 0
KDO2 171014Z 04002KT 03/01 A30 RMK A01 T00320007  RH  084%=      5-min Rain = 0
KDO2 171015Z 03001KT 03/01 A30 RMK A01 T00310007  RH  084%=      5-min Rain = 0
KDO2 171016Z 05001KT 03/01 A30 RMK A01 T00310006  RH  084%=      5-min Rain = 0
KDO2 171017Z 05001KT 03/01 A30 RMK A01 T00310006  RH  084%=      5-min Rain = 0
KDO2 171018Z 05002KT 03/01 A30 RMK A01 T00310007  RH  085%=      5-min Rain = 0
KDO2 171019Z 04002KT 03/01 A30 RMK A01 T00300008  RH  085%=      5-min Rain = 0
KDO2 171020Z 05002KT 03/01 A30 RMK A01 T00310008  RH  085%=      5-min Rain = 0
KDO2 171021Z 05003KT 03/01 A30 RMK A01 T00310009  RH  085%=      5-min Rain = 0
KDO2 171022Z 05004KT 03/01 A30 RMK A01 T00320011  RH  086%=      5-min Rain = 0
KDO2 171023Z 06004KT 03/01 A30 RMK A01 T00340012  RH  086%=      5-min Rain = 0
KDO2 171024Z 06003KT 04/01 A30 RMK A01 T00360010  RH  083%=      5-min Rain = 0
KDO2 171025Z 06004KT 04/01 A30 RMK A01 T00360010  RH  083%=      5-min Rain = 0
KDO2 171026Z 06003KT 04/01 A30 RMK A01 T00370014  RH  084%=      5-min Rain = 0
KDO2 171027Z 04002KT 04/02 A30 RMK A01 T00410015  RH  083%=      5-min Rain = 0
KDO2 171028Z 03002KT 04/01 A30 RMK A01 T00390008  RH  080%=      5-min Rain = 0
KDO2 171029Z 04002KT 04/01 A30 RMK A01 T00350007  RH  082%=      5-min Rain = 0
KDO2 171030Z 04002KT 04/01 A30 RMK A01 T00350008  RH  083%=      5-min Rain = 0
KDO2 171031Z 04002KT 03/00 A30 RMK A01 T00320002  RH  081%=      5-min Rain = 0
KDO2 171032Z 05002KT 03/01 A30 RMK A01 T00310005  RH  083%=      5-min Rain = 0
KDO2 171033Z 04001KT 03/01 A30 RMK A01 T00310005  RH  083%=      5-min Rain = 0
KDO2 171034Z 06002KT 03/00 A30 RMK A01 T00280003  RH  083%=      5-min Rain = 0
KDO2 171035Z 06002KT 03/01 A30 RMK A01 T00270005  RH  085%=      5-min Rain = 0
KDO2 171036Z 08002KT 03/01 A30 RMK A01 T00290009  RH  087%=      5-min Rain = 0
KDO2 171037Z 09001KT 03/01 A30 RMK A01 T00300010  RH  087%=      5-min Rain = 0
KDO2 171038Z 09001KT 03/01 A30 RMK A01 T00300008  RH  085%=      5-min Rain = 0
KDO2 171039Z 08001KT 03/01 A30 RMK A01 T00300007  RH  085%=      5-min Rain = 0
KDO2 171040Z 08001KT 03/01 A30 RMK A01 T00300009  RH  086%=      5-min Rain = 0
KDO2 171041Z 08001KT 03/01 A30 RMK A01 T00320012  RH  087%=      5-min Rain = 0
KDO2 171042Z 08001KT 03/01 A30 RMK A01 T00330012  RH  086%=      5-min Rain = 0
KDO2 171043Z 09001KT 04/02 A30 RMK A01 T00360015  RH  086%=      5-min Rain = 0
KDO2 171044Z 10001KT 04/01 A30 RMK A01 T00370013  RH  084%=      5-min Rain = 0
KDO2 171045Z 00000KT 04/01 A30 RMK A01 T00350008  RH  082%=      5-min Rain = 0
KDO2 171046Z 16000KT 03/01 A30 RMK A01 T00330005  RH  082%=      5-min Rain = 0
KDO2 171047Z 15000KT 03/00 A30 RMK A01 T00310004  RH  083%=      5-min Rain = 0
KDO2 171048Z 13001KT 03/01 A30 RMK A01 T00300005  RH  084%=      5-min Rain = 0
KDO2 171049Z 15001KT 03/01 A30 RMK A01 T00300009  RH  086%=      5-min Rain = 0
KDO2 171050Z 15002KT 04/02 A30 RMK A01 T00350016  RH  087%=      5-min Rain = 0
KDO2 171051Z 16002KT 04/02 A30 RMK A01 T00390015  RH  085%=      5-min Rain = 0
KDO2 171052Z 15002KT 04/01 A30 RMK A01 T00380010  RH  082%=      5-min Rain = 0
KDO2 171053Z 13001KT 04/01 A30 RMK A01 T00370009  RH  082%=      5-min Rain = 0
KDO2 171054Z 14002KT 03/01 A30 RMK A01 T00340005  RH  081%=      5-min Rain = 0
KDO2 171055Z 14002KT 03/00 A30 RMK A01 T00320003  RH  081%=      5-min Rain = 0
KDO2 171056Z 15002KT 03/00 A30 RMK A01 T00310003  RH  082%=      5-min Rain = 0
KDO2 171057Z 12002KT 03/00 A30 RMK A01 T00300004  RH  083%=      5-min Rain = 0
KDO2 171058Z 13002KT 03/01 A30 RMK A01 T00300006  RH  085%=      5-min Rain = 0
KDO2 171059Z 16002KT 03/01 A30 RMK A01 T00300008  RH  085%=      5-min Rain = 0
KDO2 171100Z 14002KT 03/01 A30 RMK A01 T00300008  RH  085%=      5-min Rain = 0
KDO2 171101Z 09002KT 03/01 A30 RMK A01 T00310009  RH  086%=      5-min Rain = 0
KDO2 171102Z 12002KT 03/01 A30 RMK A01 T00310009  RH  085%=      5-min Rain = 0
KDO2 171103Z 13001KT 03/01 A30 RMK A01 T00310009  RH  085%=      5-min Rain = 0
KDO2 171104Z 16002KT 03/01 A30 RMK A01 T00300007  RH  085%=      5-min Rain = 0
KDO2 171105Z 13001KT 03/01 A30 RMK A01 T00300007  RH  085%=      5-min Rain = 0
KDO2 171106Z 18002KT 03/00 A30 RMK A01 T00270003  RH  084%=      5-min Rain = 0
KDO2 171107Z 16001KT 02/00 A30 RMK A01 T002400-0  RH  084%=      5-min Rain = 0
KDO2 171108Z 17002KT 02/00 A30 RMK A01 T00230001  RH  085%=      5-min Rain = 0
KDO2 171109Z 14001KT 02/00 A30 RMK A01 T00220003  RH  087%=      5-min Rain = 0
KDO2 171110Z 17002KT 02/01 A3001 RMK A01 T00240008  RH  089%=      5-min Rain = 0
KDO2 171111Z 15001KT 03/01 A3001 RMK A01 T00260008  RH  088%=      5-min Rain = 0
KDO2 171112Z 15001KT 03/01 A3001 RMK A01 T00260007  RH  087%=      5-min Rain = 0
KDO2 171113Z 16001KT 03/01 A3001 RMK A01 T00260007  RH  087%=      5-min Rain = 0
KDO2 171114Z 17001KT 03/01 A3001 RMK A01 T00260005  RH  086%=      5-min Rain = 0
KDO2 171115Z 15001KT 02/00 A3001 RMK A01 T00230002  RH  086%=      5-min Rain = 0
KDO2 171116Z 15001KT 02/00 A3001 RMK A01 T00220002  RH  087%=      5-min Rain = 0
KDO2 171117Z 14001KT 02/00 A3001 RMK A01 T00210002  RH  087%=      5-min Rain = 0
KDO2 171118Z 13001KT 02/00 A3001 RMK A01 T00210002  RH  087%=      5-min Rain = 0
KDO2 171119Z 13001KT 02/00 A3001 RMK A01 T00200003  RH  088%=      5-min Rain = 0
KDO2 171120Z 17000KT 02/00 A3001 RMK A01 T00210003  RH  088%=      5-min Rain = 0
KDO2 171121Z 17001KT 02/M00 A30 RMK A01 T00181003  RH  086%=      5-min Rain = 0
KDO2 171122Z 16002KT 02/M00 A30 RMK A01 T00171002  RH  088%=      5-min Rain = 0
KDO2 171123Z 16003KT 02/00 A30 RMK A01 T00180003  RH  089%=      5-min Rain = 0
KDO2 171124Z 17003KT 02/00 A30 RMK A01 T00190002  RH  089%=      5-min Rain = 0
KDO2 171125Z 17004KT 02/00 A30 RMK A01 T001800-0  RH  088%=      5-min Rain = 0
KDO2 171126Z 17004KT 02/M00 A30 RMK A01 T00161002  RH  088%=      5-min Rain = 0
KDO2 171127Z 16004KT 02/00 A30 RMK A01 T00160000  RH  089%=      5-min Rain = 0
KDO2 171128Z 16004KT 02/00 A30 RMK A01 T00170002  RH  090%=      5-min Rain = 0
KDO2 171129Z 16004KT 02/00 A30 RMK A01 T00170003  RH  090%=      5-min Rain = 0
KDO2 171130Z 16004KT 02/00 A30 RMK A01 T00190004  RH  090%=      5-min Rain = 0
KDO2 171131Z 16004KT 02/01 A30 RMK A01 T00200005  RH  090%=      5-min Rain = 0
KDO2 171132Z 15003KT 02/00 A30 RMK A01 T00200004  RH  089%=      5-min Rain = 0
KDO2 171133Z 15003KT 02/01 A30 RMK A01 T00200005  RH  089%=      5-min Rain = 0
KDO2 171134Z 15003KT 02/01 A30 RMK A01 T00210005  RH  089%=      5-min Rain = 0
KDO2 171135Z 14003KT 02/01 A30 RMK A01 T00210005  RH  089%=      5-min Rain = 0
KDO2 171136Z 16004KT 02/00 A30 RMK A01 T00210003  RH  088%=      5-min Rain = 0
KDO2 171137Z 17003KT 02/00 A30 RMK A01 T00200001  RH  087%=      5-min Rain = 0
KDO2 171138Z 18004KT 02/00 A30 RMK A01 T001900-0  RH  087%=      5-min Rain = 0
KDO2 171139Z 17003KT 02/00 A30 RMK A01 T00180000  RH  088%=      5-min Rain = 0
KDO2 171140Z 16004KT 02/00 A30 RMK A01 T00180001  RH  089%=      5-min Rain = 0
KDO2 171141Z 15004KT 02/00 A30 RMK A01 T00180002  RH  089%=      5-min Rain = 0
KDO2 171142Z 16004KT 02/00 A2999 RMK A01 T00180002  RH  089%=      5-min Rain = 0
KDO2 171143Z 17004KT 02/00 A2999 RMK A01 T00180002  RH  089%=      5-min Rain = 0
KDO2 171144Z 18004KT 02/00 A2999 RMK A01 T00180001  RH  089%=      5-min Rain = 0
KDO2 171145Z 18004KT 02/00 A2999 RMK A01 T00170001  RH  089%=      5-min Rain = 0
KDO2 171146Z 18003KT 02/00 A30 RMK A01 T00160001  RH  089%=      5-min Rain = 0
KDO2 171147Z 18004KT 02/00 A30 RMK A01 T00170001  RH  090%=      5-min Rain = 0
KDO2 171148Z 18004KT 02/00 A30 RMK A01 T00160001  RH  090%=      5-min Rain = 0
KDO2 171149Z 18003KT 02/00 A30 RMK A01 T00160001  RH  090%=      5-min Rain = 0
KDO2 171150Z 17004KT 02/00 A30 RMK A01 T00170002  RH  090%=      5-min Rain = 0
KDO2 171151Z 18004KT 02/00 A30 RMK A01 T00170003  RH  090%=      5-min Rain = 0
KDO2 171152Z 17003KT 02/00 A30 RMK A01 T00170002  RH  090%=      5-min Rain = 0
KDO2 171153Z 17003KT 02/00 A30 RMK A01 T00170002  RH  090%=      5-min Rain = 0
KDO2 171154Z 18002KT 02/00 A30 RMK A01 T00180003  RH  090%=      5-min Rain = 0
KDO2 171155Z 17002KT 02/00 A30 RMK A01 T00180003  RH  090%=      5-min Rain = 0
KDO2 171156Z 19002KT 02/00 A30 RMK A01 T00180003  RH  089%=      5-min Rain = 0
KDO2 171157Z 21002KT 02/M00 A30 RMK A01 T00151002  RH  088%=      5-min Rain = 0
KDO2 171158Z 19002KT 01/M00 A3001 RMK A01 T00131004  RH  089%=      5-min Rain = 0
KDO2 171159Z 16001KT 01/M00 A3001 RMK A01 T00131002  RH  090%=      5-min Rain = 0
KDO2 171200Z 19001KT 01/00 A3001 RMK A01 T001400-0  RH  090%=      5-min Rain = 0
KDO2 171201Z 20002KT 01/M00 A3001 RMK A01 T00141001  RH  090%=      5-min Rain = 0
KDO2 171202Z 20001KT 01/M00 A3001 RMK A01 T00131002  RH  090%=      5-min Rain = 0
KDO2 171203Z 20001KT 01/M00 A3001 RMK A01 T00131002  RH  090%=      5-min Rain = 0
KDO2 171204Z 19001KT 01/M00 A3001 RMK A01 T00131001  RH  090%=      5-min Rain = 0
KDO2 171205Z 18002KT 02/00 A30 RMK A01 T00150001  RH  091%=      5-min Rain = 0
KDO2 171206Z 18002KT 02/00 A30 RMK A01 T00160002  RH  091%=      5-min Rain = 0
KDO2 171207Z 16003KT 02/00 A30 RMK A01 T00160002  RH  090%=      5-min Rain = 0
KDO2 171208Z 16004KT 02/00 A30 RMK A01 T00160001  RH  090%=      5-min Rain = 0
KDO2 171209Z 17004KT 02/M00 A30 RMK A01 T00151001  RH  089%=      5-min Rain = 0
KDO2 171210Z 17004KT 01/M00 A30 RMK A01 T00131004  RH  088%=      5-min Rain = 0
KDO2 171211Z 17004KT 01/M01 A30 RMK A01 T00111005  RH  089%=      5-min Rain = 0
KDO2 171212Z 16004KT 01/M00 A30 RMK A01 T00111004  RH  090%=      5-min Rain = 0
KDO2 171213Z 17004KT 01/M00 A30 RMK A01 T00111003  RH  090%=      5-min Rain = 0
KDO2 171214Z 17004KT 01/M00 A30 RMK A01 T00111002  RH  091%=      5-min Rain = 0
KDO2 171215Z 17003KT 01/M00 A30 RMK A01 T00111002  RH  091%=      5-min Rain = 0
KDO2 171216Z 18003KT 01/M00 A30 RMK A01 T00111002  RH  091%=      5-min Rain = 0
KDO2 171217Z 17003KT 01/M00 A30 RMK A01 T00111002  RH  091%=      5-min Rain = 0
KDO2 171218Z 17003KT 01/M00 A30 RMK A01 T00111002  RH  091%=      5-min Rain = 0
KDO2 171219Z 17003KT 01/M00 A30 RMK A01 T00111002  RH  090%=      5-min Rain = 0
KDO2 171220Z 17003KT 01/M00 A30 RMK A01 T00111003  RH  090%=      5-min Rain = 0
KDO2 171221Z 17004KT 01/M00 A30 RMK A01 T00111004  RH  090%=      5-min Rain = 0
KDO2 171222Z 17003KT 01/M00 A30 RMK A01 T00111003  RH  090%=      5-min Rain = 0
KDO2 171223Z 17003KT 01/00 A3001 RMK A01 T00130000  RH  091%=      5-min Rain = 0
KDO2 171224Z 17003KT 02/00 A3001 RMK A01 T00160004  RH  092%=      5-min Rain = 0
KDO2 171225Z 18002KT 02/01 A3001 RMK A01 T00180007  RH  092%=      5-min Rain = 0
KDO2 171226Z 18003KT 02/01 A3001 RMK A01 T00210008  RH  092%=      5-min Rain = 0
KDO2 171227Z 18003KT 02/01 A3001 RMK A01 T00210006  RH  090%=      5-min Rain = 0
KDO2 171228Z 19003KT 02/00 A3001 RMK A01 T001900-0  RH  087%=      5-min Rain = 0
KDO2 171229Z 19004KT 02/M01 A3001 RMK A01 T00161005  RH  086%=      5-min Rain = 0
KDO2 171230Z 18004KT 02/M00 A3001 RMK A01 T00151004  RH  087%=      5-min Rain = 0
KDO2 171231Z 18004KT 02/M00 A30 RMK A01 T00151002  RH  089%=      5-min Rain = 0
KDO2 171232Z 18004KT 02/00 A30 RMK A01 T00160001  RH  090%=      5-min Rain = 0
KDO2 171233Z 18004KT 02/00 A30 RMK A01 T00170002  RH  090%=      5-min Rain = 0
KDO2 171234Z 18005KT 02/00 A30 RMK A01 T00170002  RH  089%=      5-min Rain = 0
KDO2 171235Z 17004KT 02/00 A30 RMK A01 T00170002  RH  089%=      5-min Rain = 0
KDO2 171236Z 17004KT 02/00 A3001 RMK A01 T00170002  RH  089%=      5-min Rain = 0
KDO2 171237Z 16004KT 02/00 A3001 RMK A01 T00170002  RH  090%=      5-min Rain = 0
KDO2 171238Z 16004KT 02/00 A3001 RMK A01 T00180003  RH  090%=      5-min Rain = 0
KDO2 171239Z 16003KT 02/00 A3001 RMK A01 T00190004  RH  090%=      5-min Rain = 0
KDO2 171240Z 16003KT 02/00 A3001 RMK A01 T00190004  RH  090%=      5-min Rain = 0
KDO2 171241Z 16003KT 02/00 A3001 RMK A01 T00190003  RH  089%=      5-min Rain = 0
KDO2 171242Z 17002KT 02/00 A3002 RMK A01 T00190003  RH  089%=      5-min Rain = 0
KDO2 171243Z 24001KT 02/M00 A3002 RMK A01 T00171001  RH  088%=      5-min Rain = 0
KDO2 171244Z 27002KT 01/M01 A3002 RMK A01 T00111010  RH  086%=      5-min Rain = 0
KDO2 171245Z 28001KT 01/M01 A3002 RMK A01 T00071012  RH  087%=      5-min Rain = 0
KDO2 171246Z 29001KT 01/M01 A3002 RMK A01 T00061011  RH  088%=      5-min Rain = 0
KDO2 171247Z 29002KT 01/M01 A3002 RMK A01 T00051010  RH  089%=      5-min Rain = 0
KDO2 171248Z 28002KT 01/M01 A3002 RMK A01 T00051009  RH  090%=      5-min Rain = 0
KDO2 171249Z 25001KT 01/M01 A3002 RMK A01 T00051008  RH  091%=      5-min Rain = 0
KDO2 171250Z 17001KT 01/M01 A3002 RMK A01 T00051007  RH  092%=      5-min Rain = 0
KDO2 171251Z 21001KT 01/M00 A3002 RMK A01 T00071004  RH  092%=      5-min Rain = 0
KDO2 171252Z 18002KT 01/M00 A3002 RMK A01 T00081003  RH  093%=      5-min Rain = 0
KDO2 171253Z 17002KT 01/00 A3002 RMK A01 T00100000  RH  093%=      5-min Rain = 0
KDO2 171254Z 15003KT 01/00 A3001 RMK A01 T001100-0  RH  092%=      5-min Rain = 0
KDO2 171255Z 16003KT 01/M00 A3001 RMK A01 T00111001  RH  092%=      5-min Rain = 0
KDO2 171256Z 17003KT 01/M00 A3001 RMK A01 T00101004  RH  091%=      5-min Rain = 0
KDO2 171257Z 16003KT 01/M01 A3001 RMK A01 T00081007  RH  090%=      5-min Rain = 0
KDO2 171258Z 17003KT 01/M01 A3001 RMK A01 T00071007  RH  090%=      5-min Rain = 0
KDO2 171259Z 17003KT 01/M01 A3001 RMK A01 T00071007  RH  091%=      5-min Rain = 0
KDO2 171300Z 16004KT 01/M01 A3001 RMK A01 T00071006  RH  091%=      5-min Rain = 0
KDO2 171301Z 15005KT 01/M01 A3001 RMK A01 T00071005  RH  092%=      5-min Rain = 0
KDO2 171302Z 16005KT 01/M00 A3001 RMK A01 T00081004  RH  092%=      5-min Rain = 0
KDO2 171303Z 16005KT 01/M00 A3001 RMK A01 T00081004  RH  092%=      5-min Rain = 0
KDO2 171304Z 17004KT 01/M01 A3001 RMK A01 T00081005  RH  091%=      5-min Rain = 0
KDO2 171305Z 17004KT 01/M01 A3001 RMK A01 T00081005  RH  091%=      5-min Rain = 0
KDO2 171306Z 17004KT 01/M01 A3002 RMK A01 T00081005  RH  092%=      5-min Rain = 0
KDO2 171307Z 15004KT 01/M00 A3002 RMK A01 T00081003  RH  092%=      5-min Rain = 0
KDO2 171308Z 14004KT 02/01 A3002 RMK A01 T00160009  RH  095%=      5-min Rain = 0
KDO2 171309Z 15004KT 02/02 A3002 RMK A01 T00230018  RH  096%=      5-min Rain = 0
KDO2 171310Z 15003KT 03/02 A3002 RMK A01 T00270020  RH  095%=      5-min Rain = 0
KDO2 171311Z 16003KT 03/02 A3002 RMK A01 T00290017  RH  092%=      5-min Rain = 0
KDO2 171312Z 18002KT 03/01 A3002 RMK A01 T00270007  RH  087%=      5-min Rain = 0
KDO2 171313Z 17002KT 02/M00 A3003 RMK A01 T00221002  RH  084%=      5-min Rain = 0
KDO2 171314Z 16001KT 02/M00 A3003 RMK A01 T00191001  RH  086%=      5-min Rain = 0
KDO2 171315Z 22001KT 02/00 A3003 RMK A01 T00190002  RH  088%=      5-min Rain = 0
KDO2 171316Z 19001KT 02/00 A3003 RMK A01 T00190001  RH  088%=      5-min Rain = 0
KDO2 171317Z 16002KT 02/00 A3003 RMK A01 T00180000  RH  088%=      5-min Rain = 0
KDO2 171318Z 16002KT 02/00 A3002 RMK A01 T001700-0  RH  088%=      5-min Rain = 0
KDO2 171319Z 16002KT 02/00 A3002 RMK A01 T001700-0  RH  089%=      5-min Rain = 0
KDO2 171320Z 16002KT 02/00 A3002 RMK A01 T00170000  RH  089%=      5-min Rain = 0
KDO2 171321Z 16002KT 02/M00 A3002 RMK A01 T00161001  RH  089%=      5-min Rain = 0
KDO2 171322Z 14004KT 02/M00 A3002 RMK A01 T00151002  RH  089%=      5-min Rain = 0
KDO2 171323Z 15004KT 02/M00 A3002 RMK A01 T00151001  RH  089%=      5-min Rain = 0
KDO2 171324Z 13005KT 02/M00 A3002 RMK A01 T00151002  RH  089%=      5-min Rain = 0
KDO2 171325Z 14005KT 01/M00 A3002 RMK A01 T00141003  RH  089%=      5-min Rain = 0
KDO2 171326Z 15004KT 01/M00 A3002 RMK A01 T00131004  RH  089%=      5-min Rain = 0
KDO2 171327Z 15004KT 01/M01 A3002 RMK A01 T00121005  RH  089%=      5-min Rain = 0
KDO2 171328Z 13004KT 01/M01 A3002 RMK A01 T00111005  RH  089%=      5-min Rain = 0
KDO2 171329Z 12005KT 01/M00 A3002 RMK A01 T00111003  RH  090%=      5-min Rain = 0
KDO2 171330Z 12004KT 02/01 A3002 RMK A01 T00160006  RH  093%=      5-min Rain = 0
KDO2 171331Z 13004KT 02/01 A3002 RMK A01 T00190009  RH  093%=      5-min Rain = 0
KDO2 171332Z 14003KT 02/01 A3003 RMK A01 T00200007  RH  091%=      5-min Rain = 0
KDO2 171333Z 14003KT 02/00 A3003 RMK A01 T00190003  RH  089%=      5-min Rain = 0
KDO2 171334Z 14003KT 02/M00 A3003 RMK A01 T00171001  RH  088%=      5-min Rain = 0
KDO2 171335Z 18002KT 02/M00 A3003 RMK A01 T00161002  RH  088%=      5-min Rain = 0
KDO2 171336Z 15003KT 01/M00 A3003 RMK A01 T00141002  RH  089%=      5-min Rain = 0
KDO2 171337Z 21003KT 01/M00 A3003 RMK A01 T00131002  RH  089%=      5-min Rain = 0
KDO2 171338Z 17004KT 01/M00 A3003 RMK A01 T00131001  RH  090%=      5-min Rain = 0
KDO2 171339Z 18004KT 01/00 A3003 RMK A01 T00140001  RH  091%=      5-min Rain = 0
KDO2 171340Z 18003KT 02/00 A3003 RMK A01 T00150003  RH  092%=      5-min Rain = 0
KDO2 171341Z 20003KT 02/00 A3003 RMK A01 T00160003  RH  091%=      5-min Rain = 0
KDO2 171342Z 18003KT 02/00 A3003 RMK A01 T00160003  RH  091%=      5-min Rain = 0
KDO2 171343Z 17003KT 02/00 A3004 RMK A01 T00160003  RH  091%=      5-min Rain = 0
KDO2 171344Z 18002KT 02/01 A3004 RMK A01 T00170005  RH  092%=      5-min Rain = 0
KDO2 171345Z 15003KT 02/01 A3004 RMK A01 T00170005  RH  092%=      5-min Rain = 0
KDO2 171346Z 17002KT 02/01 A3004 RMK A01 T00180005  RH  091%=      5-min Rain = 0
KDO2 171347Z 17002KT 02/01 A3004 RMK A01 T00180005  RH  091%=      5-min Rain = 0
KDO2 171348Z 18002KT 02/01 A3004 RMK A01 T00190006  RH  091%=      5-min Rain = 0
KDO2 171349Z 16002KT 02/01 A3004 RMK A01 T00200007  RH  091%=      5-min Rain = 0
KDO2 171350Z 17001KT 02/01 A3004 RMK A01 T00210007  RH  091%=      5-min Rain = 0
KDO2 171351Z 21002KT 02/01 A3004 RMK A01 T00210007  RH  091%=      5-min Rain = 0
KDO2 171352Z 23003KT 02/01 A3004 RMK A01 T00220007  RH  090%=      5-min Rain = 0
KDO2 171353Z 21003KT 02/01 A3004 RMK A01 T00220007  RH  090%=      5-min Rain = 0
KDO2 171354Z 26003KT 02/01 A3004 RMK A01 T00220007  RH  090%=      5-min Rain = 0
KDO2 171355Z 24002KT 02/01 A3004 RMK A01 T00220006  RH  089%=      5-min Rain = 0
KDO2 171356Z 21002KT 02/01 A3004 RMK A01 T00220006  RH  090%=      5-min Rain = 0
KDO2 171357Z 22001KT 02/01 A3004 RMK A01 T00220008  RH  090%=      5-min Rain = 0
KDO2 171358Z 26001KT 02/01 A3005 RMK A01 T00220008  RH  090%=      5-min Rain = 0
KDO2 171359Z 28001KT 02/01 A3005 RMK A01 T00230008  RH  090%=      5-min Rain = 0
KDO2 171400Z 31001KT 02/01 A3005 RMK A01 T00230009  RH  090%=      5-min Rain = 0
KDO2 171401Z 32002KT 02/01 A3005 RMK A01 T00230009  RH  090%=      5-min Rain = 0
KDO2 171402Z 31002KT 02/01 A3005 RMK A01 T00230009  RH  090%=      5-min Rain = 0
KDO2 171403Z 31003KT 02/01 A3005 RMK A01 T00230009  RH  090%=      5-min Rain = 0
KDO2 171404Z 31004KT 02/01 A3005 RMK A01 T00240009  RH  090%=      5-min Rain = 0
KDO2 171405Z 31004KT 02/01 A3006 RMK A01 T00240009  RH  090%=      5-min Rain = 0
KDO2 171406Z 31004KT 02/01 A3006 RMK A01 T00240009  RH  090%=      5-min Rain = 0
KDO2 171407Z 31004KT 02/01 A3006 RMK A01 T00240009  RH  090%=      5-min Rain = 0
KDO2 171408Z 32005KT 03/01 A3006 RMK A01 T00250011  RH  090%=      5-min Rain = 0
KDO2 171409Z 32005KT 03/01 A3007 RMK A01 T00260012  RH  091%=      5-min Rain = 0
KDO2 171410Z 32005KT 03/02 A3007 RMK A01 T00280015  RH  091%=      5-min Rain = 0
KDO2 171411Z 31004KT 03/02 A3007 RMK A01 T00300017  RH  091%=      5-min Rain = 0
KDO2 171412Z 31004KT 03/02 A3007 RMK A01 T00320019  RH  091%=      5-min Rain = 0
KDO2 171413Z 31004KT 03/02 A3007 RMK A01 T00340020  RH  090%=      5-min Rain = 0
KDO2 171414Z 31004KT 04/02 A3007 RMK A01 T00360021  RH  090%=      5-min Rain = 0
KDO2 171415Z 31004KT 04/02 A3007 RMK A01 T00390022  RH  089%=      5-min Rain = 0
KDO2 171416Z 30004KT 04/02 A3007 RMK A01 T00400022  RH  088%=      5-min Rain = 0
KDO2 171417Z 30003KT 04/02 A3007 RMK A01 T00420023  RH  087%=      5-min Rain = 0
KDO2 171418Z 30004KT 04/02 A3007 RMK A01 T00440024  RH  086%=      5-min Rain = 0
KDO2 171419Z 30003KT 05/02 A3007 RMK A01 T00460024  RH  086%=      5-min Rain = 0
KDO2 171420Z 30003KT 05/03 A3007 RMK A01 T00470025  RH  085%=      5-min Rain = 0
KDO2 171421Z 32003KT 05/03 A3007 RMK A01 T00480025  RH  085%=      5-min Rain = 0
KDO2 171422Z 32003KT 05/03 A3007 RMK A01 T00490025  RH  085%=      5-min Rain = 0
KDO2 171423Z 31003KT 05/03 A3007 RMK A01 T00500026  RH  084%=      5-min Rain = 0
KDO2 171424Z 33002KT 05/03 A3007 RMK A01 T00510026  RH  084%=      5-min Rain = 0
KDO2 171425Z 33002KT 05/03 A3007 RMK A01 T00520026  RH  083%=      5-min Rain = 0
KDO2 171426Z 34002KT 05/03 A3007 RMK A01 T00540028  RH  083%=      5-min Rain = 0
KDO2 171427Z 02002KT 06/03 A3007 RMK A01 T00550028  RH  083%=      5-min Rain = 0
KDO2 171428Z 01001KT 06/03 A3007 RMK A01 T00560027  RH  082%=      5-min Rain = 0
KDO2 171429Z 33001KT 06/03 A3007 RMK A01 T00580029  RH  082%=      5-min Rain = 0
KDO2 171430Z 03001KT 06/03 A3007 RMK A01 T00590028  RH  080%=      5-min Rain = 0
KDO2 171431Z 04002KT 06/03 A3007 RMK A01 T00600028  RH  080%=      5-min Rain = 0
KDO2 171432Z 05000KT 06/03 A3007 RMK A01 T00620028  RH  079%=      5-min Rain = 0
KDO2 171433Z 00000KT 06/03 A3007 RMK A01 T00630030  RH  079%=      5-min Rain = 0
KDO2 171434Z 08000KT 06/03 A3007 RMK A01 T00640029  RH  078%=      5-min Rain = 0
KDO2 171435Z 08001KT 07/03 A3007 RMK A01 T00650027  RH  077%=      5-min Rain = 0
KDO2 171436Z 07000KT 07/03 A3007 RMK A01 T00670028  RH  076%=      5-min Rain = 0
KDO2 171437Z 00000KT 07/03 A3007 RMK A01 T00680028  RH  076%=      5-min Rain = 0
KDO2 171438Z 19001KT 07/03 A3007 RMK A01 T00690028  RH  075%=      5-min Rain = 0
KDO2 171439Z 18002KT 07/03 A3007 RMK A01 T00690027  RH  074%=      5-min Rain = 0
KDO2 171440Z 17003KT 07/03 A3006 RMK A01 T00700028  RH  075%=      5-min Rain = 0
KDO2 171441Z 16002KT 07/03 A3006 RMK A01 T00710030  RH  075%=      5-min Rain = 0
KDO2 171442Z 15002KT 07/03 A3006 RMK A01 T00720031  RH  076%=      5-min Rain = 0
KDO2 171443Z 17002KT 07/03 A3006 RMK A01 T00720031  RH  075%=      5-min Rain = 0
KDO2 171444Z 16002KT 07/03 A3006 RMK A01 T00730032  RH  075%=      5-min Rain = 0
KDO2 171445Z 16001KT 07/03 A3007 RMK A01 T00730031  RH  075%=      5-min Rain = 0
KDO2 171446Z 17002KT 07/03 A3007 RMK A01 T00740030  RH  074%=      5-min Rain = 0
KDO2 171447Z 18002KT 07/03 A3007 RMK A01 T00740031  RH  074%=      5-min Rain = 0
KDO2 171448Z 17002KT 08/03 A3007 RMK A01 T00750029  RH  073%=      5-min Rain = 0
KDO2 171449Z 19001KT 08/03 A3007 RMK A01 T00750031  RH  073%=      5-min Rain = 0
KDO2 171450Z 18001KT 08/03 A3007 RMK A01 T00770032  RH  073%=      5-min Rain = 0
KDO2 171451Z 18001KT 08/03 A3007 RMK A01 T00780030  RH  072%=      5-min Rain = 0
KDO2 171452Z 17000KT 08/03 A3007 RMK A01 T00790033  RH  073%=      5-min Rain = 0
KDO2 171453Z 00000KT 08/03 A3007 RMK A01 T00800034  RH  073%=      5-min Rain = 0
KDO2 171454Z 00000KT 08/03 A3007 RMK A01 T00800032  RH  072%=      5-min Rain = 0
KDO2 171455Z 01000KT 08/03 A3007 RMK A01 T00800032  RH  071%=      5-min Rain = 0
KDO2 171456Z 35001KT 08/03 A3007 RMK A01 T00810032  RH  071%=      5-min Rain = 0
KDO2 171457Z 00000KT 08/03 A3007 RMK A01 T00810032  RH  071%=      5-min Rain = 0
KDO2 171458Z 00001KT 08/03 A3007 RMK A01 T00820034  RH  072%=      5-min Rain = 0
KDO2 171459Z 34001KT 08/04 A3007 RMK A01 T00830035  RH  072%=      5-min Rain = 0
KDO2 171500Z 36001KT 08/03 A3007 RMK A01 T00830033  RH  071%=      5-min Rain = 0
KDO2 171501Z 00001KT 08/03 A3007 RMK A01 T00820033  RH  071%=      5-min Rain = 0
KDO2 171502Z 35001KT 08/03 A3007 RMK A01 T00820034  RH  072%=      5-min Rain = 0
KDO2 171503Z 32002KT 08/03 A3007 RMK A01 T00810034  RH  072%=      5-min Rain = 0
KDO2 171504Z 34001KT 08/04 A3007 RMK A01 T00810035  RH  073%=      5-min Rain = 0
KDO2 171505Z 00001KT 08/04 A3007 RMK A01 T00810036  RH  073%=      5-min Rain = 0
KDO2 171506Z 36002KT 08/04 A3007 RMK A01 T00820037  RH  073%=      5-min Rain = 0
KDO2 171507Z 36002KT 08/04 A3007 RMK A01 T00830037  RH  073%=      5-min Rain = 0
KDO2 171508Z 00003KT 08/04 A3008 RMK A01 T00840038  RH  073%=      5-min Rain = 0
KDO2 171509Z 36003KT 08/04 A3008 RMK A01 T00840037  RH  072%=      5-min Rain = 0
KDO2 171510Z 35003KT 09/04 A3008 RMK A01 T00850039  RH  073%=      5-min Rain = 0
KDO2 171511Z 35003KT 09/04 A3008 RMK A01 T00870038  RH  071%=      5-min Rain = 0
KDO2 171512Z 36003KT 09/04 A3008 RMK A01 T00880038  RH  071%=      5-min Rain = 0
KDO2 171513Z 36003KT 09/04 A3008 RMK A01 T00880039  RH  071%=      5-min Rain = 0
KDO2 171514Z 00003KT 09/04 A3008 RMK A01 T00900040  RH  071%=      5-min Rain = 0
KDO2 171515Z 36002KT 09/04 A3008 RMK A01 T00910039  RH  070%=      5-min Rain = 0
KDO2 171516Z 02002KT 09/04 A3008 RMK A01 T00920041  RH  070%=      5-min Rain = 0
KDO2 171517Z 02002KT 09/04 A3008 RMK A01 T00940042  RH  070%=      5-min Rain = 0
KDO2 171518Z 04001KT 10/04 A3008 RMK A01 T00950041  RH  069%=      5-min Rain = 0
KDO2 171519Z 02002KT 10/04 A3008 RMK A01 T00970044  RH  069%=      5-min Rain = 0
KDO2 171520Z 03002KT 10/04 A3008 RMK A01 T00990044  RH  069%=      5-min Rain = 0
KDO2 171521Z 35004KT 10/05 A3008 RMK A01 T01000046  RH  069%=      5-min Rain = 0
KDO2 171522Z 34004KT 10/05 A3008 RMK A01 T01010048  RH  070%=      5-min Rain = 0
KDO2 171523Z 00003KT 10/05 A3008 RMK A01 T01020051  RH  070%=      5-min Rain = 0
KDO2 171524Z 35003KT 10/05 A3008 RMK A01 T01040051  RH  070%=      5-min Rain = 0
KDO2 171525Z 34003KT 10/05 A3008 RMK A01 T01040050  RH  069%=      5-min Rain = 0
KDO2 171526Z 34004KT 10/05 A3008 RMK A01 T01040051  RH  069%=      5-min Rain = 0
KDO2 171527Z 34004KT 10/05 A3008 RMK A01 T01040051  RH  070%=      5-min Rain = 0
KDO2 171528Z 33004KT 10/05 A3008 RMK A01 T01040051  RH  070%=      5-min Rain = 0
KDO2 171529Z 36004KT 11/05 A3008 RMK A01 T01050053  RH  070%=      5-min Rain = 0
KDO2 171530Z 00004KT 11/06 A3008 RMK A01 T01080055  RH  070%=      5-min Rain = 0
KDO2 171531Z 36003KT 11/05 A3008 RMK A01 T01090052  RH  068%=      5-min Rain = 0
KDO2 171532Z 34004KT 11/05 A3008 RMK A01 T01090053  RH  068%=      5-min Rain = 0
KDO2 171533Z 34003KT 11/05 A3008 RMK A01 T01100053  RH  068%=      5-min Rain = 0
KDO2 171534Z 33003KT 11/05 A3008 RMK A01 T01110054  RH  068%=      5-min Rain = 0
KDO2 171535Z 30003KT 11/05 A3008 RMK A01 T01120053  RH  067%=      5-min Rain = 0
KDO2 171536Z 33003KT 11/05 A3008 RMK A01 T01130051  RH  066%=      5-min Rain = 0
KDO2 171537Z 33004KT 11/05 A3008 RMK A01 T01130050  RH  065%=      5-min Rain = 0
KDO2 171538Z 33005KT 11/05 A3008 RMK A01 T01130050  RH  065%=      5-min Rain = 0
KDO2 171539Z 35004KT 11/05 A3008 RMK A01 T01130050  RH  065%=      5-min Rain = 0
KDO2 171540Z 33003KT 11/05 A3008 RMK A01 T01130052  RH  066%=      5-min Rain = 0
KDO2 171541Z 32003KT 11/05 A3008 RMK A01 T01140052  RH  066%=      5-min Rain = 0
KDO2 171542Z 32005KT 12/05 A3008 RMK A01 T01150051  RH  065%=      5-min Rain = 0
KDO2 171543Z 30004KT 12/05 A3008 RMK A01 T01160050  RH  064%=      5-min Rain = 0
KDO2 171544Z 34005KT 12/05 A3008 RMK A01 T01180051  RH  063%=      5-min Rain = 0
KDO2 171545Z 32004KT 12/05 A3008 RMK A01 T01200053  RH  063%=      5-min Rain = 0
KDO2 171546Z 33005KT 12/05 A3008 RMK A01 T01220049  RH  061%=      5-min Rain = 0
KDO2 171547Z 34003KT 12/05 A3008 RMK A01 T01210047  RH  060%=      5-min Rain = 0
KDO2 171548Z 34003KT 12/05 A3008 RMK A01 T01210047  RH  061%=      5-min Rain = 0
KDO2 171549Z 33004KT 12/05 A3008 RMK A01 T01210048  RH  061%=      5-min Rain = 0
KDO2 171550Z 33004KT 12/05 A3008 RMK A01 T01230047  RH  060%=      5-min Rain = 0
KDO2 171551Z 35005KT 12/05 A3008 RMK A01 T01230050  RH  061%=      5-min Rain = 0
KDO2 171552Z 34004KT 12/05 A3008 RMK A01 T01240047  RH  059%=      5-min Rain = 0
KDO2 171553Z 34003KT 13/05 A3008 RMK A01 T01250048  RH  059%=      5-min Rain = 0
KDO2 171554Z 33005KT 13/05 A3008 RMK A01 T01250048  RH  060%=      5-min Rain = 0
KDO2 171555Z 32005KT 13/05 A3008 RMK A01 T01260049  RH  059%=      5-min Rain = 0
KDO2 171556Z 34004KT 13/05 A3008 RMK A01 T01270048  RH  059%=      5-min Rain = 0
KDO2 171557Z 32006KT 13/05 A3008 RMK A01 T01270049  RH  059%=      5-min Rain = 0
KDO2 171558Z 31005KT 13/05 A3008 RMK A01 T01270046  RH  058%=      5-min Rain = 0
KDO2 171559Z 31006KT 13/05 A3008 RMK A01 T01260048  RH  059%=      5-min Rain = 0
KDO2 171600Z 32005KT 13/05 A3008 RMK A01 T01270046  RH  058%=      5-min Rain = 0
KDO2 171601Z 32004KT 13/05 A3008 RMK A01 T01280049  RH  059%=      5-min Rain = 0
KDO2 171602Z 32004KT 13/05 A3008 RMK A01 T01290047  RH  057%=      5-min Rain = 0
KDO2 171603Z 30007KT 13/05 A3008 RMK A01 T01300050  RH  058%=      5-min Rain = 0
KDO2 171604Z 29005KT 13/05 A3008 RMK A01 T01320048  RH  056%=      5-min Rain = 0
KDO2 171605Z 29005KT 13/05 A3008 RMK A01 T01330049  RH  057%=      5-min Rain = 0
KDO2 171606Z 30005KT 14/05 A3008 RMK A01 T01350048  RH  056%=      5-min Rain = 0
KDO2 171607Z 30005KT 14/05 A3009 RMK A01 T01350049  RH  056%=      5-min Rain = 0
KDO2 171608Z 29008KT 14/05 A3009 RMK A01 T01360049  RH  056%=      5-min Rain = 0
KDO2 171609Z 28008KT 14/05 A3009 RMK A01 T01360048  RH  055%=      5-min Rain = 0
KDO2 171610Z 28008KT 13/05 A3009 RMK A01 T01340047  RH  056%=      5-min Rain = 0
KDO2 171611Z 29010KT 14/05 A3009 RMK A01 T01350051  RH  057%=      5-min Rain = 0
KDO2 171612Z 30007KT 14/05 A3009 RMK A01 T01350050  RH  056%=      5-min Rain = 0
KDO2 171613Z 29008KT 14/05 A3009 RMK A01 T01350052  RH  057%=      5-min Rain = 0
KDO2 171614Z 29010KT 14/05 A3009 RMK A01 T01350047  RH  055%=      5-min Rain = 0
KDO2 171615Z 28009KT 13/05 A3009 RMK A01 T01330047  RH  056%=      5-min Rain = 0
KDO2 171616Z 28006KT 13/05 A3009 RMK A01 T01330050  RH  057%=      5-min Rain = 0
KDO2 171617Z 29008KT 14/05 A3009 RMK A01 T01360051  RH  056%=      5-min Rain = 0
KDO2 171618Z 30007KT 14/05 A3009 RMK A01 T01370053  RH  057%=      5-min Rain = 0
KDO2 171619Z 28006KT 14/05 A3008 RMK A01 T01400054  RH  056%=      5-min Rain = 0
KDO2 171620Z 27009KT 14/05 A3008 RMK A01 T01410050  RH  054%=      5-min Rain = 0
KDO2 171621Z 27008KT 14/05 A3008 RMK A01 T01390049  RH  055%=      5-min Rain = 0
KDO2 171622Z 27008KT 14/05 A3008 RMK A01 T01390048  RH  054%=      5-min Rain = 0
KDO2 171623Z 28010KT 14/05 A3008 RMK A01 T01390051  RH  056%=      5-min Rain = 0
KDO2 171624Z 27008KT 14/05 A3008 RMK A01 T01390052  RH  056%=      5-min Rain = 0
KDO2 171625Z 26008KT 14/05 A3008 RMK A01 T01390052  RH  056%=      5-min Rain = 0
KDO2 171626Z 26007KT 14/05 A3008 RMK A01 T01390052  RH  056%=      5-min Rain = 0
KDO2 171627Z 26007KT 14/05 A3008 RMK A01 T01410052  RH  055%=      5-min Rain = 0
KDO2 171628Z 26006KT 14/05 A3008 RMK A01 T01400050  RH  055%=      5-min Rain = 0
KDO2 171629Z 29009KT 14/05 A3008 RMK A01 T01400051  RH  055%=      5-min Rain = 0
KDO2 171630Z 28010KT 14/05 A3008 RMK A01 T01400051  RH  055%=      5-min Rain = 0
KDO2 171631Z 28009KT 14/05 A3008 RMK A01 T01390051  RH  055%=      5-min Rain = 0
KDO2 171632Z 28007KT 14/05 A3008 RMK A01 T01410053  RH  056%=      5-min Rain = 0
KDO2 171633Z 29008KT 14/05 A3008 RMK A01 T01430053  RH  055%=      5-min Rain = 0
KDO2 171634Z 26007KT 14/05 A3008 RMK A01 T01430052  RH  054%=      5-min Rain = 0
KDO2 171635Z 26007KT 14/05 A3008 RMK A01 T01430051  RH  054%=      5-min Rain = 0
KDO2 171636Z 26009KT 14/05 A3008 RMK A01 T01430051  RH  054%=      5-min Rain = 0
KDO2 171637Z 28008KT 14/05 A3008 RMK A01 T01430051  RH  054%=      5-min Rain = 0
KDO2 171638Z 27006KT 14/05 A3008 RMK A01 T01430051  RH  054%=      5-min Rain = 0
KDO2 171639Z 25007KT 14/05 A3008 RMK A01 T01430051  RH  054%=      5-min Rain = 0
KDO2 171640Z 26008KT 14/05 A3008 RMK A01 T01440050  RH  053%=      5-min Rain = 0
KDO2 171641Z 27010KT 14/05 A3008 RMK A01 T01440051  RH  054%=      5-min Rain = 0
KDO2 171642Z 28007KT 15/05 A3008 RMK A01 T01450053  RH  054%=      5-min Rain = 0
KDO2 171643Z 28005KT 15/06 A3008 RMK A01 T01470055  RH  054%=      5-min Rain = 0
KDO2 171644Z 27008KT 15/06 A3008 RMK A01 T01510057  RH  053%=      5-min Rain = 0
KDO2 171645Z 27009KT 15/05 A3008 RMK A01 T01530054  RH  052%=      5-min Rain = 0
KDO2 171646Z 28008KT 15/05 A3007 RMK A01 T01510051  RH  051%=      5-min Rain = 0
KDO2 171647Z 29008KT 15/05 A3007 RMK A01 T01510052  RH  052%=      5-min Rain = 0
KDO2 171648Z 29008KT 15/05 A3007 RMK A01 T01490049  RH  051%=      5-min Rain = 0
KDO2 171649Z 28007KT 15/05 A3007 RMK A01 T01480051  RH  052%=      5-min Rain = 0
KDO2 171650Z 28007KT 15/05 A3007 RMK A01 T01480052  RH  053%=      5-min Rain = 0
KDO2 171651Z 25010KT 15/05 A3007 RMK A01 T01510053  RH  052%=      5-min Rain = 0
KDO2 171652Z 25010KT 15/05 A3007 RMK A01 T01520052  RH  051%=      5-min Rain = 0
KDO2 171653Z 24008KT 15/05 A3007 RMK A01 T01520051  RH  051%=      5-min Rain = 0
KDO2 171654Z 25007KT 15/05 A3007 RMK A01 T01510051  RH  051%=      5-min Rain = 0
KDO2 171655Z 26007KT 15/05 A3007 RMK A01 T01510050  RH  051%=      5-min Rain = 0
KDO2 171656Z 25010KT 15/05 A3007 RMK A01 T01510048  RH  050%=      5-min Rain = 0
KDO2 171657Z 24010KT 15/05 A3007 RMK A01 T01500050  RH  051%=      5-min Rain = 0
KDO2 171658Z 25010KT 15/05 A3007 RMK A01 T01510049  RH  051%=      5-min Rain = 0
KDO2 171659Z 26009KT 15/05 A3007 RMK A01 T01510049  RH  051%=      5-min Rain = 0
KDO2 171700Z 28008KT 15/05 A3007 RMK A01 T01500048  RH  050%=      5-min Rain = 0
KDO2 171701Z 26007KT 15/05 A3007 RMK A01 T01490048  RH  051%=      5-min Rain = 0
KDO2 171702Z 26005KT 15/05 A3007 RMK A01 T01490047  RH  051%=      5-min Rain = 0
KDO2 171703Z 26006KT 15/05 A3007 RMK A01 T01500051  RH  051%=      5-min Rain = 0
KDO2 171704Z 25005KT 15/05 A3007 RMK A01 T01540051  RH  050%=      5-min Rain = 0
KDO2 171705Z 26006KT 16/05 A3007 RMK A01 T01560051  RH  050%=      5-min Rain = 0
KDO2 171706Z 27007KT 16/05 A3007 RMK A01 T01570051  RH  049%=      5-min Rain = 0
KDO2 171707Z 28007KT 16/05 A3007 RMK A01 T01590052  RH  049%=      5-min Rain = 0
KDO2 171708Z 25010KT 16/05 A3007 RMK A01 T01590050  RH  048%=      5-min Rain = 0
KDO2 171709Z 28006KT 16/05 A3007 RMK A01 T01560046  RH  048%=      5-min Rain = 0
KDO2 171710Z 27004KT 15/05 A3007 RMK A01 T01540049  RH  049%=      5-min Rain = 0
KDO2 171711Z 28003G8KT 16/05 A3007 RMK A01 T01560051  RH  050%=      5-min Rain = 0
KDO2 171712Z 27009KT 16/05 A3007 RMK A01 T01600052  RH  049%=      5-min Rain = 0
KDO2 171713Z 25009KT 16/05 A3007 RMK A01 T01620051  RH  047%=      5-min Rain = 0
KDO2 171714Z 25008KT 16/05 A3007 RMK A01 T01600046  RH  047%=      5-min Rain = 0
KDO2 171715Z 24009KT 16/05 A3007 RMK A01 T01570046  RH  048%=      5-min Rain = 0
KDO2 171716Z 27008KT 16/05 A3007 RMK A01 T01570048  RH  048%=      5-min Rain = 0
KDO2 171717Z 29008KT 16/05 A3007 RMK A01 T01590049  RH  048%=      5-min Rain = 0
KDO2 171718Z 28006KT 16/05 A3007 RMK A01 T01590046  RH  047%=      5-min Rain = 0
KDO2 171719Z 29007KT 16/05 A3007 RMK A01 T01580047  RH  048%=      5-min Rain = 0
KDO2 171720Z 28009KT 16/05 A3007 RMK A01 T01580047  RH  048%=      5-min Rain = 0
KDO2 171721Z 27007KT 16/05 A3007 RMK A01 T01570046  RH  047%=      5-min Rain = 0
KDO2 171722Z 26008KT 16/05 A3007 RMK A01 T01570047  RH  048%=      5-min Rain = 0
KDO2 171723Z 25007KT 16/05 A3007 RMK A01 T01580046  RH  047%=      5-min Rain = 0
KDO2 171724Z 27008KT 16/05 A3007 RMK A01 T01570045  RH  047%=      5-min Rain = 0
KDO2 171725Z 29006KT 16/05 A3007 RMK A01 T01570046  RH  048%=      5-min Rain = 0
KDO2 171726Z 28007KT 16/05 A3007 RMK A01 T01580049  RH  048%=      5-min Rain = 0
KDO2 171727Z 26011KT 16/05 A3007 RMK A01 T01630052  RH  048%=      5-min Rain = 0
KDO2 171728Z 26009KT 17/05 A3007 RMK A01 T01650048  RH  046%=      5-min Rain = 0
KDO2 171729Z 26010KT 16/05 A3007 RMK A01 T01620047  RH  046%=      5-min Rain = 0
KDO2 171730Z 27006KT 16/05 A3007 RMK A01 T01600046  RH  046%=      5-min Rain = 0
KDO2 171731Z 24006KT 16/05 A3007 RMK A01 T01610048  RH  047%=      5-min Rain = 0
KDO2 171732Z 26011KT 16/05 A3006 RMK A01 T01630048  RH  046%=      5-min Rain = 0
KDO2 171733Z 26010KT 16/05 A3006 RMK A01 T01630047  RH  046%=      5-min Rain = 0
KDO2 171734Z 26008KT 16/05 A3006 RMK A01 T01620047  RH  046%=      5-min Rain = 0
KDO2 171735Z 27009KT 16/05 A3006 RMK A01 T01630047  RH  046%=      5-min Rain = 0
KDO2 171736Z 27008KT 16/05 A3006 RMK A01 T01630046  RH  046%=      5-min Rain = 0
KDO2 171737Z 27006KT 16/05 A3006 RMK A01 T01610045  RH  046%=      5-min Rain = 0
KDO2 171738Z 26005KT 16/05 A3006 RMK A01 T01600046  RH  047%=      5-min Rain = 0
KDO2 171739Z 27007KT 16/05 A3006 RMK A01 T01640049  RH  047%=      5-min Rain = 0
KDO2 171740Z 27007KT 17/05 A3006 RMK A01 T01650047  RH  046%=      5-min Rain = 0
KDO2 171741Z 27006KT 17/05 A3006 RMK A01 T01650047  RH  045%=      5-min Rain = 0
KDO2 171742Z 29008KT 17/05 A3006 RMK A01 T01650048  RH  046%=      5-min Rain = 0
KDO2 171743Z 29010KT 17/05 A3006 RMK A01 T01660048  RH  046%=      5-min Rain = 0
KDO2 171744Z 31006KT 17/05 A3006 RMK A01 T01650048  RH  046%=      5-min Rain = 0
KDO2 171745Z 30008KT 17/05 A3005 RMK A01 T01660050  RH  046%=      5-min Rain = 0
KDO2 171746Z 31007KT 17/05 A3005 RMK A01 T01670048  RH  045%=      5-min Rain = 0
KDO2 171747Z 30005KT 17/05 A3005 RMK A01 T01670048  RH  045%=      5-min Rain = 0
KDO2 171748Z 29007G14KT 17/05 A3005 RMK A01 T01650047  RH  045%=      5-min Rain = 0
KDO2 171749Z 29009KT 17/05 A3005 RMK A01 T01680050  RH  046%=      5-min Rain = 0
KDO2 171750Z 29006KT 17/05 A3005 RMK A01 T01680048  RH  045%=      5-min Rain = 0
KDO2 171751Z 29007KT 17/05 A3005 RMK A01 T01680050  RH  046%=      5-min Rain = 0
KDO2 171752Z 28008KT 17/05 A3005 RMK A01 T01700051  RH  045%=      5-min Rain = 0
KDO2 171753Z 30007KT 17/05 A3005 RMK A01 T01730052  RH  045%=      5-min Rain = 0
KDO2 171754Z 30008KT 18/05 A3005 RMK A01 T01750050  RH  044%=      5-min Rain = 0
KDO2 171755Z 29011KT 17/05 A3005 RMK A01 T01730051  RH  044%=      5-min Rain = 0
KDO2 171756Z 29010KT 17/05 A3005 RMK A01 T01730049  RH  044%=      5-min Rain = 0
KDO2 171757Z 30008KT 17/05 A3005 RMK A01 T01710048  RH  044%=      5-min Rain = 0
KDO2 171758Z 30005KT 17/05 A3005 RMK A01 T01690046  RH  044%=      5-min Rain = 0
KDO2 171759Z 28005KT 17/05 A3005 RMK A01 T01690050  RH  045%=      5-min Rain = 0
KDO2 171800Z 30007KT 17/05 A3005 RMK A01 T01720051  RH  045%=      5-min Rain = 0
KDO2 171801Z 31008KT 18/05 A3005 RMK A01 T01750052  RH  044%=      5-min Rain = 0
KDO2 171802Z 31007KT 18/05 A3005 RMK A01 T01750050  RH  044%=      5-min Rain = 0
KDO2 171803Z 31006KT 17/05 A3005 RMK A01 T01740049  RH  044%=      5-min Rain = 0
KDO2 171804Z 26005KT 17/05 A3005 RMK A01 T01730050  RH  044%=      5-min Rain = 0
KDO2 171805Z 28007KT 17/05 A3005 RMK A01 T01740048  RH  043%=      5-min Rain = 0
KDO2 171806Z 32007KT 17/05 A3005 RMK A01 T01740051  RH  044%=      5-min Rain = 0
KDO2 171807Z 34007KT 18/05 A3005 RMK A01 T01750052  RH  044%=      5-min Rain = 0
KDO2 171808Z 33011KT 18/05 A3005 RMK A01 T01760051  RH  044%=      5-min Rain = 0
KDO2 171809Z 34009KT 18/05 A3005 RMK A01 T01760053  RH  044%=      5-min Rain = 0
KDO2 171810Z 32008KT 18/05 A3005 RMK A01 T01770050  RH  043%=      5-min Rain = 0
KDO2 171811Z 33009KT 18/05 A3005 RMK A01 T01750050  RH  044%=      5-min Rain = 0
KDO2 171812Z 31009KT 18/05 A3005 RMK A01 T01750052  RH  044%=      5-min Rain = 0
KDO2 171813Z 31011KT 18/05 A3005 RMK A01 T01770052  RH  044%=      5-min Rain = 0
KDO2 171814Z 30007KT 18/05 A3005 RMK A01 T01780054  RH  044%=      5-min Rain = 0
KDO2 171815Z 30010KT 18/05 A3005 RMK A01 T01800054  RH  043%=      5-min Rain = 0
KDO2 171816Z 32010KT 18/05 A3005 RMK A01 T01800052  RH  043%=      5-min Rain = 0
KDO2 171817Z 33008KT 18/05 A3005 RMK A01 T01780052  RH  043%=      5-min Rain = 0
KDO2 171818Z 31009KT 18/05 A3005 RMK A01 T01760052  RH  044%=      5-min Rain = 0
KDO2 171819Z 30011KT 18/05 A3005 RMK A01 T01780054  RH  044%=      5-min Rain = 0
KDO2 171820Z 30010KT 18/05 A3005 RMK A01 T01780052  RH  044%=      5-min Rain = 0
KDO2 171821Z 29008KT 18/05 A3005 RMK A01 T01770053  RH  044%=      5-min Rain = 0
KDO2 171822Z 30008KT 18/05 A3005 RMK A01 T01760053  RH  044%=      5-min Rain = 0
KDO2 171823Z 33012KT 18/05 A3005 RMK A01 T01770054  RH  044%=      5-min Rain = 0
KDO2 171824Z 33010KT 18/05 A3005 RMK A01 T01790054  RH  044%=      5-min Rain = 0
KDO2 171825Z 34010KT 18/05 A3005 RMK A01 T01780054  RH  044%=      5-min Rain = 0
KDO2 171826Z 33009KT 18/05 A3005 RMK A01 T01780054  RH  044%=      5-min Rain = 0
KDO2 171827Z 33011KT 18/06 A3005 RMK A01 T01790055  RH  044%=      5-min Rain = 0
KDO2 171828Z 33010KT 18/05 A3005 RMK A01 T01790054  RH  044%=      5-min Rain = 0
KDO2 171829Z 32013KT 18/06 A3005 RMK A01 T01790055  RH  044%=      5-min Rain = 0
KDO2 171830Z 33012KT 18/06 A3005 RMK A01 T01790055  RH  044%=      5-min Rain = 0
KDO2 171831Z 33011KT 18/05 A3005 RMK A01 T01790054  RH  044%=      5-min Rain = 0
KDO2 171832Z 32009KT 18/05 A3005 RMK A01 T01780053  RH  044%=      5-min Rain = 0
KDO2 171833Z 34008KT 18/05 A3005 RMK A01 T01750052  RH  044%=      5-min Rain = 0
KDO2 171834Z 34006KT 17/05 A3005 RMK A01 T01730052  RH  045%=      5-min Rain = 0
KDO2 171835Z 33009KT 17/05 A3005 RMK A01 T01730053  RH  045%=      5-min Rain = 0
KDO2 171836Z 31011KT 17/05 A3004 RMK A01 T01740053  RH  045%=      5-min Rain = 0
KDO2 171837Z 31011KT 18/06 A3004 RMK A01 T01760055  RH  045%=      5-min Rain = 0
KDO2 171838Z 31008KT 18/05 A3004 RMK A01 T01770053  RH  044%=      5-min Rain = 0
KDO2 171839Z 32007KT 18/06 A3004 RMK A01 T01760055  RH  045%=      5-min Rain = 0
KDO2 171840Z 32007KT 18/06 A3004 RMK A01 T01780055  RH  044%=      5-min Rain = 0
KDO2 171841Z 32007KT 18/05 A3004 RMK A01 T01780054  RH  044%=      5-min Rain = 0
KDO2 171842Z 31009KT 18/05 A3004 RMK A01 T01770053  RH  044%=      5-min Rain = 0
KDO2 171843Z 33010KT 18/06 A3004 RMK A01 T01770055  RH  045%=      5-min Rain = 0
KDO2 171844Z 32009KT 18/06 A3004 RMK A01 T01790057  RH  045%=      5-min Rain = 0
KDO2 171845Z 31009KT 18/06 A3004 RMK A01 T01820057  RH  044%=      5-min Rain = 0
KDO2 171846Z 30009KT 18/05 A3004 RMK A01 T01810054  RH  043%=      5-min Rain = 0
KDO2 171847Z 30008KT 18/06 A3004 RMK A01 T01790055  RH  044%=      5-min Rain = 0
KDO2 171848Z 29006KT 18/05 A3004 RMK A01 T01780053  RH  044%=      5-min Rain = 0
KDO2 171849Z 29008KT 18/05 A3004 RMK A01 T01770054  RH  044%=      5-min Rain = 0
KDO2 171850Z 29008KT 18/05 A3003 RMK A01 T01770054  RH  044%=      5-min Rain = 0
KDO2 171851Z 29009KT 18/06 A3003 RMK A01 T01770055  RH  045%=      5-min Rain = 0
KDO2 171852Z 31011KT 18/06 A3003 RMK A01 T01790055  RH  044%=      5-min Rain = 0
KDO2 171853Z 32007KT 18/06 A3003 RMK A01 T01790055  RH  044%=      5-min Rain = 0
KDO2 171854Z 32005KT 18/06 A3003 RMK A01 T01780055  RH  044%=      5-min Rain = 0
KDO2 171855Z 31007KT 18/06 A3003 RMK A01 T01810058  RH  045%=      5-min Rain = 0
KDO2 171856Z 29008KT 18/06 A3003 RMK A01 T01840057  RH  043%=      5-min Rain = 0
KDO2 171857Z 31012KT 18/06 A3003 RMK A01 T01840058  RH  043%=      5-min Rain = 0
KDO2 171858Z 31010KT 18/06 A3003 RMK A01 T01840057  RH  043%=      5-min Rain = 0
KDO2 171859Z 00009KT 18/06 A3003 RMK A01 T01840058  RH  044%=      5-min Rain = 0
KDO2 171900Z 34008KT 18/06 A3003 RMK A01 T01840056  RH  043%=      5-min Rain = 0
KDO2 171901Z 31009KT 18/06 A3003 RMK A01 T01830057  RH  043%=      5-min Rain = 0
KDO2 171902Z 33008KT 18/06 A3003 RMK A01 T01830056  RH  043%=      5-min Rain = 0
KDO2 171903Z 33007KT 18/06 A3002 RMK A01 T01830056  RH  043%=      5-min Rain = 0
KDO2 171904Z 31007KT 18/06 A3002 RMK A01 T01820056  RH  044%=      5-min Rain = 0
KDO2 171905Z 31006KT 18/06 A3002 RMK A01 T01810055  RH  043%=      5-min Rain = 0
KDO2 171906Z 32007KT 18/06 A3002 RMK A01 T01810058  RH  045%=      5-min Rain = 0
KDO2 171907Z 33012KT 19/06 A3002 RMK A01 T01850060  RH  044%=      5-min Rain = 0
KDO2 171908Z 33011KT 19/06 A3002 RMK A01 T01850056  RH  043%=      5-min Rain = 0
KDO2 171909Z 33011KT 18/06 A3002 RMK A01 T01840058  RH  044%=      5-min Rain = 0
KDO2 171910Z 34009KT 19/06 A3002 RMK A01 T01850057  RH  043%=      5-min Rain = 0
KDO2 171911Z 35005KT 18/06 A3002 RMK A01 T01840057  RH  043%=      5-min Rain = 0
KDO2 171912Z 33005KT 19/06 A3002 RMK A01 T01850059  RH  044%=      5-min Rain = 0
KDO2 171913Z 32006KT 19/06 A3002 RMK A01 T01870060  RH  043%=      5-min Rain = 0
KDO2 171914Z 32011KT 19/06 A3002 RMK A01 T01890062  RH  044%=      5-min Rain = 0
KDO2 171915Z 31010KT 19/06 A3002 RMK A01 T01900061  RH  043%=      5-min Rain = 0
KDO2 171916Z 31009KT 19/06 A3002 RMK A01 T01870058  RH  043%=      5-min Rain = 0
KDO2 171917Z 30007KT 18/06 A3002 RMK A01 T01840061  RH  044%=      5-min Rain = 0
KDO2 171918Z 31011KT 19/06 A3002 RMK A01 T01880062  RH  044%=      5-min Rain = 0
KDO2 171919Z 31011KT 19/06 A3002 RMK A01 T01890061  RH  043%=      5-min Rain = 0
KDO2 171920Z 31011KT 19/06 A3002 RMK A01 T01870061  RH  044%=      5-min Rain = 0
KDO2 171921Z 30009KT 19/06 A3002 RMK A01 T01880061  RH  044%=      5-min Rain = 0
KDO2 171922Z 30010KT 19/06 A3002 RMK A01 T01880061  RH  043%=      5-min Rain = 0
KDO2 171923Z 31010KT 19/06 A3002 RMK A01 T01890062  RH  043%=      5-min Rain = 0
KDO2 171924Z 33008KT 19/06 A3002 RMK A01 T01890061  RH  043%=      5-min Rain = 0
KDO2 171925Z 34007KT 19/06 A3001 RMK A01 T01890061  RH  043%=      5-min Rain = 0
KDO2 171926Z 33009KT 19/06 A3001 RMK A01 T01900062  RH  043%=      5-min Rain = 0
KDO2 171927Z 32009KT 19/06 A3001 RMK A01 T01900061  RH  043%=      5-min Rain = 0
KDO2 171928Z 33009KT 19/06 A3001 RMK A01 T01900061  RH  043%=      5-min Rain = 0
KDO2 171929Z 33007KT 19/06 A3001 RMK A01 T01900062  RH  043%=      5-min Rain = 0
KDO2 171930Z 30007KT 19/06 A3002 RMK A01 T01910061  RH  042%=      5-min Rain = 0
KDO2 171931Z 32006KT 19/06 A3002 RMK A01 T01880058  RH  042%=      5-min Rain = 0
KDO2 171932Z 33011KT 19/06 A3002 RMK A01 T01870059  RH  043%=      5-min Rain = 0
KDO2 171933Z 33009KT 19/06 A3002 RMK A01 T01850057  RH  043%=      5-min Rain = 0
KDO2 171934Z 30008KT 18/06 A3002 RMK A01 T01840059  RH  044%=      5-min Rain = 0
KDO2 171935Z 29007KT 18/06 A3001 RMK A01 T01840057  RH  043%=      5-min Rain = 0
KDO2 171936Z 32007KT 18/06 A3001 RMK A01 T01840059  RH  044%=      5-min Rain = 0
KDO2 171937Z 34007KT 19/06 A3001 RMK A01 T01850058  RH  043%=      5-min Rain = 0
KDO2 171938Z 33008KT 19/06 A3001 RMK A01 T01850059  RH  044%=      5-min Rain = 0
KDO2 171939Z 31008KT 19/06 A3001 RMK A01 T01860059  RH  043%=      5-min Rain = 0
KDO2 171940Z 32009KT 19/06 A3001 RMK A01 T01870059  RH  043%=      5-min Rain = 0
KDO2 171941Z 32009KT 19/06 A3001 RMK A01 T01870058  RH  043%=      5-min Rain = 0
KDO2 171942Z 31009KT 19/06 A3001 RMK A01 T01850056  RH  043%=      5-min Rain = 0
KDO2 171943Z 32008KT 18/06 A3001 RMK A01 T01840057  RH  044%=      5-min Rain = 0
KDO2 171944Z 33009KT 19/06 A3001 RMK A01 T01870061  RH  044%=      5-min Rain = 0
KDO2 171945Z 32010KT 19/06 A3001 RMK A01 T01890059  RH  042%=      5-min Rain = 0
KDO2 171946Z 32009KT 19/06 A3001 RMK A01 T01880058  RH  042%=      5-min Rain = 0
KDO2 171947Z 32007KT 19/06 A3001 RMK A01 T01860057  RH  043%=      5-min Rain = 0
KDO2 171948Z 30006KT 19/06 A3001 RMK A01 T01850057  RH  043%=      5-min Rain = 0
KDO2 171949Z 31007KT 19/06 A3001 RMK A01 T01860058  RH  043%=      5-min Rain = 0
KDO2 171950Z 30009KT 19/06 A3001 RMK A01 T01870058  RH  043%=      5-min Rain = 0
KDO2 171951Z 32007KT 19/06 A3001 RMK A01 T01860057  RH  043%=      5-min Rain = 0
KDO2 171952Z 33007KT 19/06 A3001 RMK A01 T01850058  RH  043%=      5-min Rain = 0
KDO2 171953Z 34009KT 19/06 A3001 RMK A01 T01850057  RH  043%=      5-min Rain = 0
KDO2 171954Z 32011KT 19/06 A3001 RMK A01 T01850058  RH  043%=      5-min Rain = 0
KDO2 171955Z 30009KT 19/06 A3001 RMK A01 T01850057  RH  043%=      5-min Rain = 0
KDO2 171956Z 31007KT 18/06 A3001 RMK A01 T01840056  RH  043%=      5-min Rain = 0
KDO2 171957Z 30009KT 18/06 A3001 RMK A01 T01820056  RH  044%=      5-min Rain = 0
KDO2 171958Z 29009KT 18/06 A3001 RMK A01 T01810055  RH  044%=      5-min Rain = 0
KDO2 171959Z 29009KT 18/06 A3001 RMK A01 T01800055  RH  044%=      5-min Rain = 0
KDO2 172000Z 31010KT 18/06 A3001 RMK A01 T01800056  RH  044%=      5-min Rain = 0
KDO2 172001Z 32010KT 18/06 A3001 RMK A01 T01800056  RH  044%=      5-min Rain = 0
KDO2 172002Z 32007KT 18/06 A3001 RMK A01 T01810056  RH  044%=      5-min Rain = 0
KDO2 172003Z 33008KT 18/06 A3001 RMK A01 T01810056  RH  044%=      5-min Rain = 0
KDO2 172004Z 33010KT 18/06 A3001 RMK A01 T01830056  RH  043%=      5-min Rain = 0
KDO2 172005Z 32009KT 18/06 A3001 RMK A01 T01840056  RH  043%=      5-min Rain = 0
KDO2 172006Z 31010KT 19/06 A3001 RMK A01 T01850056  RH  043%=      5-min Rain = 0
KDO2 172007Z 32010KT 19/06 A3001 RMK A01 T01850056  RH  043%=      5-min Rain = 0
KDO2 172008Z 33008KT 19/06 A3001 RMK A01 T01870058  RH  043%=      5-min Rain = 0
KDO2 172009Z 33009KT 19/06 A3001 RMK A01 T01880056  RH  042%=      5-min Rain = 0
KDO2 172010Z 32011KT 19/06 A3001 RMK A01 T01880057  RH  042%=      5-min Rain = 0
KDO2 172011Z 33011KT 19/06 A30 RMK A01 T01870056  RH  042%=      5-min Rain = 0
KDO2 172012Z 33008KT 18/05 A30 RMK A01 T01840054  RH  043%=      5-min Rain = 0
KDO2 172013Z 30008KT 18/06 A30 RMK A01 T01830056  RH  043%=      5-min Rain = 0
KDO2 172014Z 30008KT 18/06 A30 RMK A01 T01840055  RH  043%=      5-min Rain = 0
KDO2 172015Z 33008KT 19/06 A30 RMK A01 T01860057  RH  043%=      5-min Rain = 0
KDO2 172016Z 32010KT 19/06 A30 RMK A01 T01870056  RH  042%=      5-min Rain = 0
KDO2 172017Z 31008KT 19/06 A30 RMK A01 T01870055  RH  042%=      5-min Rain = 0
KDO2 172018Z 30007KT 19/06 A30 RMK A01 T01860055  RH  042%=      5-min Rain = 0
KDO2 172019Z 30007KT 19/06 A30 RMK A01 T01870057  RH  042%=      5-min Rain = 0
KDO2 172020Z 29008KT 19/06 A30 RMK A01 T01880057  RH  042%=      5-min Rain = 0
KDO2 172021Z 31009KT 19/06 A30 RMK A01 T01890056  RH  042%=      5-min Rain = 0
KDO2 172022Z 31012KT 19/06 A30 RMK A01 T01900056  RH  041%=      5-min Rain = 0
KDO2 172023Z 31011KT 19/06 A30 RMK A01 T01880055  RH  042%=      5-min Rain = 0
KDO2 172024Z 32010KT 19/05 A30 RMK A01 T01860054  RH  042%=      5-min Rain = 0
KDO2 172025Z 31008KT 19/05 A30 RMK A01 T01850054  RH  042%=      5-min Rain = 0
KDO2 172026Z 31008KT 19/06 A30 RMK A01 T01860056  RH  043%=      5-min Rain = 0
KDO2 172027Z 32007G14KT 19/06 A30 RMK A01 T01880058  RH  042%=      5-min Rain = 0
KDO2 172028Z 31010KT 19/06 A3001 RMK A01 T01900057  RH  042%=      5-min Rain = 0
KDO2 172029Z 30009KT 19/05 A30 RMK A01 T01900054  RH  041%=      5-min Rain = 0
KDO2 172030Z 30009KT 19/05 A30 RMK A01 T01870054  RH  042%=      5-min Rain = 0
KDO2 172031Z 32009KT 19/06 A30 RMK A01 T01880056  RH  042%=      5-min Rain = 0
KDO2 172032Z 31008KT 19/06 A30 RMK A01 T01890055  RH  041%=      5-min Rain = 0
KDO2 172033Z 30010KT 19/06 A30 RMK A01 T01890056  RH  042%=      5-min Rain = 0
KDO2 172034Z 31009KT 19/06 A30 RMK A01 T01890056  RH  042%=      5-min Rain = 0
KDO2 172035Z 30010KT 19/06 A30 RMK A01 T01900055  RH  041%=      5-min Rain = 0
KDO2 172036Z 32007KT 19/05 A30 RMK A01 T01890054  RH  041%=      5-min Rain = 0
KDO2 172037Z 31007KT 19/06 A3001 RMK A01 T01890056  RH  042%=      5-min Rain = 0
KDO2 172038Z 34008KT 19/06 A3001 RMK A01 T01910057  RH  041%=      5-min Rain = 0
KDO2 172039Z 33010KT 19/06 A30 RMK A01 T01910055  RH  041%=      5-min Rain = 0
KDO2 172040Z 32012KT 19/06 A30 RMK A01 T01910056  RH  041%=      5-min Rain = 0
KDO2 172041Z 32009KT 19/06 A30 RMK A01 T01910056  RH  041%=      5-min Rain = 0
KDO2 172042Z 32008KT 19/06 A30 RMK A01 T01910055  RH  041%=      5-min Rain = 0
KDO2 172043Z 31009KT 19/06 A30 RMK A01 T01900055  RH  041%=      5-min Rain = 0
KDO2 172044Z 31007KT 19/06 A30 RMK A01 T01890055  RH  041%=      5-min Rain = 0
KDO2 172045Z 32007KT 19/06 A30 RMK A01 T01890055  RH  041%=      5-min Rain = 0
KDO2 172046Z 32009KT 19/06 A30 RMK A01 T01900055  RH  041%=      5-min Rain = 0
KDO2 172047Z 32010KT 19/06 A30 RMK A01 T01910055  RH  041%=      5-min Rain = 0
KDO2 172048Z 32012KT 19/06 A30 RMK A01 T01910055  RH  041%=      5-min Rain = 0
KDO2 172049Z 32012KT 19/06 A30 RMK A01 T01910055  RH  041%=      5-min Rain = 0
KDO2 172050Z 33011KT 19/06 A30 RMK A01 T01910055  RH  041%=      5-min Rain = 0
KDO2 172051Z 33009KT 19/05 A30 RMK A01 T01900054  RH  041%=      5-min Rain = 0
KDO2 172052Z 31011G16KT 19/05 A30 RMK A01 T01890054  RH  041%=      5-min Rain = 0
KDO2 172053Z 32014KT 19/05 A3001 RMK A01 T01880054  RH  041%=      5-min Rain = 0
KDO2 172054Z 32011KT 19/05 A3001 RMK A01 T01890054  RH  041%=      5-min Rain = 0
KDO2 172055Z 31008KT 19/05 A3001 RMK A01 T01890054  RH  041%=      5-min Rain = 0
KDO2 172056Z 31010KT 19/06 A3001 RMK A01 T01900057  RH  042%=      5-min Rain = 0
KDO2 172057Z 31011KT 19/06 A3001 RMK A01 T01920057  RH  041%=      5-min Rain = 0
KDO2 172058Z 33010KT 19/06 A3001 RMK A01 T01930056  RH  041%=      5-min Rain = 0
KDO2 172059Z 35008KT 19/06 A3001 RMK A01 T01920055  RH  040%=      5-min Rain = 0
KDO2 172100Z 36008KT 19/05 A3001 RMK A01 T01910054  RH  040%=      5-min Rain = 0
KDO2 172101Z 34010KT 19/06 A3001 RMK A01 T01910055  RH  041%=      5-min Rain = 0
KDO2 172102Z 32011KT 19/06 A3001 RMK A01 T01910055  RH  041%=      5-min Rain = 0
KDO2 172103Z 33009KT 19/06 A3001 RMK A01 T01940057  RH  041%=      5-min Rain = 0
KDO2 172104Z 33010KT 20/06 A3001 RMK A01 T01960056  RH  040%=      5-min Rain = 0
KDO2 172105Z 31009KT 19/05 A3001 RMK A01 T01940054  RH  040%=      5-min Rain = 0
KDO2 172106Z 32011KT 19/06 A3001 RMK A01 T01940055  RH  040%=      5-min Rain = 0
KDO2 172107Z 32011KT 19/06 A3001 RMK A01 T01940055  RH  040%=      5-min Rain = 0
KDO2 172108Z 32010KT 20/05 A3001 RMK A01 T01950054  RH  040%=      5-min Rain = 0
KDO2 172109Z 31011KT 19/05 A3001 RMK A01 T01940053  RH  040%=      5-min Rain = 0
KDO2 172110Z 31011KT 19/05 A3001 RMK A01 T01930054  RH  040%=      5-min Rain = 0
KDO2 172111Z 32012KT 19/05 A3001 RMK A01 T01940053  RH  040%=      5-min Rain = 0
KDO2 172112Z 33010KT 19/05 A3001 RMK A01 T01940053  RH  040%=      5-min Rain = 0
KDO2 172113Z 34010KT 19/05 A3001 RMK A01 T01940053  RH  039%=      5-min Rain = 0
KDO2 172114Z 33009KT 19/05 A3001 RMK A01 T01940053  RH  040%=      5-min Rain = 0
KDO2 172115Z 32010KT 20/05 A3001 RMK A01 T01960054  RH  040%=      5-min Rain = 0
KDO2 172116Z 32011KT 20/05 A3001 RMK A01 T01970054  RH  039%=      5-min Rain = 0
KDO2 172117Z 32012G17KT 20/05 A3001 RMK A01 T01950052  RH  039%=      5-min Rain = 0
KDO2 172118Z 32012KT 19/05 A3001 RMK A01 T01940052  RH  039%=      5-min Rain = 0
KDO2 172119Z 32010KT 19/05 A3001 RMK A01 T01920051  RH  040%=      5-min Rain = 0
KDO2 172120Z 30013KT 19/05 A3001 RMK A01 T01910052  RH  040%=      5-min Rain = 0
KDO2 172121Z 31009KT 19/05 A3001 RMK A01 T01910052  RH  040%=      5-min Rain = 0
KDO2 172122Z 33010KT 19/05 A3001 RMK A01 T01920053  RH  040%=      5-min Rain = 0
KDO2 172123Z 32010KT 19/05 A3002 RMK A01 T01930052  RH  040%=      5-min Rain = 0
KDO2 172124Z 33013KT 19/05 A3002 RMK A01 T01940053  RH  039%=      5-min Rain = 0
KDO2 172125Z 32013KT 19/05 A3002 RMK A01 T01940052  RH  039%=      5-min Rain = 0
KDO2 172126Z 32012KT 19/05 A3002 RMK A01 T01910050  RH  040%=      5-min Rain = 0
KDO2 172127Z 32010KT 19/05 A3002 RMK A01 T01890050  RH  040%=      5-min Rain = 0
KDO2 172128Z 32009KT 19/05 A3002 RMK A01 T01890051  RH  040%=      5-min Rain = 0
KDO2 172129Z 31010KT 19/05 A3002 RMK A01 T01900053  RH  041%=      5-min Rain = 0
KDO2 172130Z 32011KT 19/05 A3002 RMK A01 T01920054  RH  040%=      5-min Rain = 0
KDO2 172131Z 33011KT 19/05 A3002 RMK A01 T01930054  RH  040%=      5-min Rain = 0
KDO2 172132Z 34009KT 19/05 A3002 RMK A01 T01930053  RH  040%=      5-min Rain = 0
KDO2 172133Z 35008KT 19/05 A3002 RMK A01 T01930054  RH  040%=      5-min Rain = 0
KDO2 172134Z 34007KT 19/05 A3002 RMK A01 T01930053  RH  040%=      5-min Rain = 0
KDO2 172135Z 32012KT 20/05 A3002 RMK A01 T01950054  RH  040%=      5-min Rain = 0
KDO2 172136Z 32012KT 20/05 A3002 RMK A01 T01950051  RH  039%=      5-min Rain = 0
KDO2 172137Z 33011KT 19/05 A3002 RMK A01 T01930052  RH  039%=      5-min Rain = 0
KDO2 172138Z 33010KT 19/05 A3001 RMK A01 T01910051  RH  040%=      5-min Rain = 0
KDO2 172139Z 33010KT 19/05 A3001 RMK A01 T01910052  RH  040%=      5-min Rain = 0
KDO2 172140Z 34011KT 19/05 A3001 RMK A01 T01910051  RH  040%=      5-min Rain = 0
KDO2 172141Z 33012KT 19/05 A3001 RMK A01 T01920051  RH  040%=      5-min Rain = 0
KDO2 172142Z 33011KT 19/05 A3001 RMK A01 T01910051  RH  040%=      5-min Rain = 0
KDO2 172143Z 33011KT 19/05 A3001 RMK A01 T01900050  RH  040%=      5-min Rain = 0
KDO2 172144Z 32009KT 19/05 A3001 RMK A01 T01900051  RH  040%=      5-min Rain = 0
KDO2 172145Z 33010KT 19/05 A3001 RMK A01 T01900052  RH  040%=      5-min Rain = 0
KDO2 172146Z 34011KT 19/05 A3001 RMK A01 T01920053  RH  040%=      5-min Rain = 0
KDO2 172147Z 34010KT 19/05 A3001 RMK A01 T01930052  RH  039%=      5-min Rain = 0
KDO2 172148Z 32010KT 19/05 A3002 RMK A01 T01920052  RH  040%=      5-min Rain = 0
KDO2 172149Z 31009KT 19/05 A3002 RMK A01 T01920052  RH  040%=      5-min Rain = 0
KDO2 172150Z 31009KT 19/05 A3002 RMK A01 T01920052  RH  040%=      5-min Rain = 0
KDO2 172151Z 32009KT 19/05 A3002 RMK A01 T01920052  RH  040%=      5-min Rain = 0
KDO2 172152Z 32008KT 19/05 A3002 RMK A01 T01920052  RH  040%=      5-min Rain = 0
KDO2 172153Z 33009KT 19/05 A3002 RMK A01 T01930053  RH  040%=      5-min Rain = 0
KDO2 172154Z 33014KT 20/05 A3002 RMK A01 T01950052  RH  039%=      5-min Rain = 0
KDO2 172155Z 33013KT 19/05 A3002 RMK A01 T01930050  RH  039%=      5-min Rain = 0
KDO2 172156Z 33011KT 19/05 A3002 RMK A01 T01920051  RH  039%=      5-min Rain = 0
KDO2 172157Z 32011KT 19/05 A3002 RMK A01 T01910050  RH  039%=      5-min Rain = 0
KDO2 172158Z 32012KT 19/05 A3002 RMK A01 T01910050  RH  040%=      5-min Rain = 0
KDO2 172159Z 32012KT 19/05 A3002 RMK A01 T01910051  RH  040%=      5-min Rain = 0
KDO2 172200Z 33012KT 19/05 A3002 RMK A01 T01910051  RH  040%=      5-min Rain = 0
KDO2 172201Z 34013KT 19/05 A3002 RMK A01 T01910050  RH  040%=      5-min Rain = 0
KDO2 172202Z 34013KT 19/05 A3002 RMK A01 T01900049  RH  039%=      5-min Rain = 0
KDO2 172203Z 34013KT 19/05 A3002 RMK A01 T01900049  RH  039%=      5-min Rain = 0
KDO2 172204Z 34010KT 19/05 A3002 RMK A01 T01890049  RH  040%=      5-min Rain = 0
KDO2 172205Z 33011KT 19/05 A3002 RMK A01 T01890049  RH  040%=      5-min Rain = 0
KDO2 172206Z 34010KT 19/05 A3002 RMK A01 T01910050  RH  040%=      5-min Rain = 0
KDO2 172207Z 34011KT 19/05 A3002 RMK A01 T01920049  RH  039%=      5-min Rain = 0
KDO2 172208Z 34011KT 19/05 A3002 RMK A01 T01920049  RH  039%=      5-min Rain = 0
KDO2 172209Z 34013KT 19/05 A3002 RMK A01 T01910048  RH  039%=      5-min Rain = 0
KDO2 172210Z 34013KT 19/05 A3002 RMK A01 T01900048  RH  039%=      5-min Rain = 0
KDO2 172211Z 34013KT 19/05 A3002 RMK A01 T01890047  RH  039%=      5-min Rain = 0
KDO2 172212Z 35012KT 19/05 A3002 RMK A01 T01890048  RH  039%=      5-min Rain = 0
KDO2 172213Z 34011KT 19/05 A3002 RMK A01 T01890048  RH  039%=      5-min Rain = 0
KDO2 172214Z 35012KT 19/05 A3002 RMK A01 T01880047  RH  039%=      5-min Rain = 0
KDO2 172215Z 34010KT 19/05 A3002 RMK A01 T01880047  RH  039%=      5-min Rain = 0
KDO2 172216Z 34009KT 19/05 A3002 RMK A01 T01880048  RH  040%=      5-min Rain = 0
KDO2 172217Z 33010KT 19/05 A3002 RMK A01 T01890047  RH  039%=      5-min Rain = 0
KDO2 172218Z 32013KT 19/05 A3002 RMK A01 T01890047  RH  039%=      5-min Rain = 0
KDO2 172219Z 33013KT 19/05 A3002 RMK A01 T01870046  RH  039%=      5-min Rain = 0
KDO2 172220Z 32011KT 19/05 A3002 RMK A01 T01860046  RH  039%=      5-min Rain = 0
KDO2 172221Z 33010KT 19/05 A3002 RMK A01 T01860046  RH  040%=      5-min Rain = 0
KDO2 172222Z 32013KT 19/05 A3002 RMK A01 T01860046  RH  040%=      5-min Rain = 0
KDO2 172223Z 32011KT 19/05 A3003 RMK A01 T01870046  RH  039%=      5-min Rain = 0
KDO2 172224Z 33011KT 19/05 A3003 RMK A01 T01870046  RH  039%=      5-min Rain = 0
KDO2 172225Z 33010KT 19/05 A3003 RMK A01 T01880046  RH  039%=      5-min Rain = 0
KDO2 172226Z 33008KT 19/05 A3003 RMK A01 T01880046  RH  039%=      5-min Rain = 0
KDO2 172227Z 33008KT 19/05 A3003 RMK A01 T01880047  RH  039%=      5-min Rain = 0
KDO2 172228Z 33010KT 19/05 A3003 RMK A01 T01890047  RH  039%=      5-min Rain = 0
KDO2 172229Z 33007KT 19/05 A3003 RMK A01 T01890048  RH  039%=      5-min Rain = 0
KDO2 172230Z 33010KT 19/05 A3003 RMK A01 T01890049  RH  040%=      5-min Rain = 0
KDO2 172231Z 33011KT 19/05 A3003 RMK A01 T01890047  RH  039%=      5-min Rain = 0
KDO2 172232Z 33013KT 19/05 A3003 RMK A01 T01870045  RH  039%=      5-min Rain = 0
KDO2 172233Z 33011KT 19/05 A3003 RMK A01 T01860045  RH  039%=      5-min Rain = 0
KDO2 172234Z 33009KT 19/05 A3003 RMK A01 T01850046  RH  040%=      5-min Rain = 0
KDO2 172235Z 33009KT 19/05 A3003 RMK A01 T01850046  RH  040%=      5-min Rain = 0
KDO2 172236Z 34011KT 19/05 A3003 RMK A01 T01860046  RH  040%=      5-min Rain = 0
KDO2 172237Z 33009KT 19/05 A3003 RMK A01 T01860045  RH  039%=      5-min Rain = 0
KDO2 172238Z 33010KT 19/04 A3003 RMK A01 T01860044  RH  039%=      5-min Rain = 0
KDO2 172239Z 33009KT 19/05 A3003 RMK A01 T01860045  RH  039%=      5-min Rain = 0
KDO2 172240Z 32007KT 19/05 A3003 RMK A01 T01850046  RH  040%=      5-min Rain = 0
KDO2 172241Z 33009KT 19/05 A3003 RMK A01 T01860046  RH  040%=      5-min Rain = 0
KDO2 172242Z 32010KT 19/05 A3003 RMK A01 T01860045  RH  039%=      5-min Rain = 0
KDO2 172243Z 32010KT 19/05 A3003 RMK A01 T01850045  RH  039%=      5-min Rain = 0
KDO2 172244Z 32009KT 19/05 A3003 RMK A01 T01850045  RH  039%=      5-min Rain = 0
KDO2 172245Z 33009KT 19/05 A3003 RMK A01 T01850045  RH  040%=      5-min Rain = 0
KDO2 172246Z 33008KT 18/04 A3003 RMK A01 T01840044  RH  040%=      5-min Rain = 0
KDO2 172247Z 33008KT 18/05 A3003 RMK A01 T01840046  RH  040%=      5-min Rain = 0
KDO2 172248Z 33009KT 18/05 A3003 RMK A01 T01840045  RH  040%=      5-min Rain = 0
KDO2 172249Z 33009KT 18/04 A3003 RMK A01 T01840044  RH  039%=      5-min Rain = 0
KDO2 172250Z 34008KT 18/04 A3003 RMK A01 T01840044  RH  040%=      5-min Rain = 0
KDO2 172251Z 32008KT 18/04 A3003 RMK A01 T01830044  RH  040%=      5-min Rain = 0
KDO2 172252Z 33009KT 18/04 A3003 RMK A01 T01840044  RH  040%=      5-min Rain = 0
KDO2 172253Z 34008KT 18/04 A3003 RMK A01 T01830044  RH  040%=      5-min Rain = 0
KDO2 172254Z 34009KT 18/04 A3003 RMK A01 T01830044  RH  040%=      5-min Rain = 0
KDO2 172255Z 34007KT 18/04 A3003 RMK A01 T01830044  RH  040%=      5-min Rain = 0
KDO2 172256Z 33008KT 18/05 A3003 RMK A01 T01830045  RH  040%=      5-min Rain = 0
KDO2 172257Z 33008KT 18/04 A3003 RMK A01 T01830043  RH  040%=      5-min Rain = 0
KDO2 172258Z 33008KT 18/04 A3003 RMK A01 T01820043  RH  040%=      5-min Rain = 0
KDO2 172259Z 33008KT 18/04 A3003 RMK A01 T01820043  RH  040%=      5-min Rain = 0
KDO2 172300Z 32009KT 18/04 A3003 RMK A01 T01820043  RH  040%=      5-min Rain = 0
KDO2 172301Z 32007KT 18/04 A3003 RMK A01 T01820043  RH  040%=      5-min Rain = 0
KDO2 172302Z 31006KT 18/05 A3003 RMK A01 T01820045  RH  040%=      5-min Rain = 0
KDO2 172303Z 32006KT 18/05 A3003 RMK A01 T01810045  RH  040%=      5-min Rain = 0
KDO2 172304Z 32007KT 18/05 A3003 RMK A01 T01810045  RH  040%=      5-min Rain = 0
KDO2 172305Z 32008KT 18/04 A3003 RMK A01 T01810044  RH  040%=      5-min Rain = 0
KDO2 172306Z 32008KT 18/04 A3003 RMK A01 T01810043  RH  040%=      5-min Rain = 0
KDO2 172307Z 32007KT 18/04 A3003 RMK A01 T01800043  RH  040%=      5-min Rain = 0
KDO2 172308Z 32005KT 18/04 A3003 RMK A01 T01790043  RH  041%=      5-min Rain = 0
KDO2 172309Z 31009KT 18/04 A3003 RMK A01 T01790043  RH  041%=      5-min Rain = 0
KDO2 172310Z 31007KT 18/04 A3003 RMK A01 T01790043  RH  041%=      5-min Rain = 0
KDO2 172311Z 32008KT 18/04 A3003 RMK A01 T01790043  RH  041%=      5-min Rain = 0
KDO2 172312Z 32007KT 18/04 A3003 RMK A01 T01780043  RH  041%=      5-min Rain = 0
KDO2 172313Z 32009KT 18/04 A3003 RMK A01 T01780043  RH  041%=      5-min Rain = 0
KDO2 172314Z 32008KT 18/04 A3003 RMK A01 T01770042  RH  041%=      5-min Rain = 0
KDO2 172315Z 31007KT 18/04 A3004 RMK A01 T01770043  RH  041%=      5-min Rain = 0
KDO2 172316Z 32009KT 18/04 A3004 RMK A01 T01760043  RH  041%=      5-min Rain = 0
KDO2 172317Z 32008KT 18/04 A3004 RMK A01 T01750043  RH  041%=      5-min Rain = 0
KDO2 172318Z 33006KT 17/04 A3004 RMK A01 T01740043  RH  042%=      5-min Rain = 0
KDO2 172319Z 32006KT 17/04 A3004 RMK A01 T01740044  RH  042%=      5-min Rain = 0
KDO2 172320Z 32007KT 17/04 A3004 RMK A01 T01730043  RH  042%=      5-min Rain = 0
KDO2 172321Z 32007KT 17/04 A3004 RMK A01 T01720043  RH  042%=      5-min Rain = 0
KDO2 172322Z 32008KT 17/04 A3004 RMK A01 T01720043  RH  042%=      5-min Rain = 0
KDO2 172323Z 31007KT 17/04 A3004 RMK A01 T01720043  RH  042%=      5-min Rain = 0
KDO2 172324Z 32007KT 17/04 A3004 RMK A01 T01710042  RH  042%=      5-min Rain = 0
KDO2 172325Z 32007KT 17/04 A3004 RMK A01 T01710042  RH  042%=      5-min Rain = 0
KDO2 172326Z 32007KT 17/04 A3004 RMK A01 T01710043  RH  043%=      5-min Rain = 0
KDO2 172327Z 32006KT 17/04 A3004 RMK A01 T01700043  RH  043%=      5-min Rain = 0
KDO2 172328Z 32006KT 17/04 A3004 RMK A01 T01690043  RH  043%=      5-min Rain = 0
KDO2 172329Z 32006KT 17/04 A3004 RMK A01 T01680043  RH  043%=      5-min Rain = 0
KDO2 172330Z 32005KT 17/04 A3004 RMK A01 T01670043  RH  044%=      5-min Rain = 0
KDO2 172331Z 32005KT 17/04 A3004 RMK A01 T01660043  RH  044%=      5-min Rain = 0
KDO2 172332Z 32006KT 16/04 A3004 RMK A01 T01640043  RH  044%=      5-min Rain = 0
KDO2 172333Z 32005KT 16/04 A3004 RMK A01 T01630043  RH  045%=      5-min Rain = 0
KDO2 172334Z 32006KT 16/04 A3004 RMK A01 T01620043  RH  045%=      5-min Rain = 0
KDO2 172335Z 32006KT 16/04 A3004 RMK A01 T01610042  RH  045%=      5-min Rain = 0
KDO2 172336Z 32006KT 16/04 A3004 RMK A01 T01600043  RH  045%=      5-min Rain = 0
KDO2 172337Z 32006KT 16/04 A3004 RMK A01 T01590042  RH  046%=      5-min Rain = 0
KDO2 172338Z 32006KT 16/04 A3004 RMK A01 T01590042  RH  046%=      5-min Rain = 0
KDO2 172339Z 32006KT 16/04 A3004 RMK A01 T01580042  RH  046%=      5-min Rain = 0
KDO2 172340Z 32007KT 16/04 A3004 RMK A01 T01570042  RH  046%=      5-min Rain = 0
KDO2 172341Z 32007KT 16/04 A3004 RMK A01 T01570043  RH  046%=      5-min Rain = 0
KDO2 172342Z 32006KT 16/04 A3004 RMK A01 T01570043  RH  046%=      5-min Rain = 0
KDO2 172343Z 32007KT 16/04 A3004 RMK A01 T01560042  RH  047%=      5-min Rain = 0
KDO2 172344Z 32007KT 16/04 A3004 RMK A01 T01560043  RH  047%=      5-min Rain = 0
KDO2 172345Z 32007KT 16/04 A3004 RMK A01 T01550043  RH  047%=      5-min Rain = 0
KDO2 172346Z 32007KT 15/04 A3005 RMK A01 T01540042  RH  047%=      5-min Rain = 0
KDO2 172347Z 32007KT 15/04 A3005 RMK A01 T01540043  RH  047%=      5-min Rain = 0
KDO2 172348Z 32007KT 15/04 A3005 RMK A01 T01530042  RH  048%=      5-min Rain = 0
KDO2 172349Z 32007KT 15/04 A3005 RMK A01 T01520042  RH  048%=      5-min Rain = 0
KDO2 172350Z 32007KT 15/04 A3005 RMK A01 T01510043  RH  048%=      5-min Rain = 0
KDO2 172351Z 32007KT 15/04 A3005 RMK A01 T01500042  RH  048%=      5-min Rain = 0
KDO2 172352Z 32007KT 15/04 A3005 RMK A01 T01500042  RH  049%=      5-min Rain = 0
KDO2 172353Z 32007KT 15/04 A3005 RMK A01 T01490042  RH  049%=      5-min Rain = 0
KDO2 172354Z 32007KT 15/04 A3005 RMK A01 T01490043  RH  049%=      5-min Rain = 0
KDO2 172355Z 32007KT 15/04 A3005 RMK A01 T01480043  RH  049%=      5-min Rain = 0
KDO2 172356Z 32007KT 15/04 A3005 RMK A01 T01470043  RH  050%=      5-min Rain = 0
KDO2 172357Z 32007KT 15/04 A3005 RMK A01 T01470043  RH  050%=      5-min Rain = 0
KDO2 172358Z 32007KT 15/04 A3005 RMK A01 T01460043  RH  050%=      5-min Rain = 0
KDO2 172359Z 32006KT 15/04 A3005 RMK A01 T01450043  RH  050%=      5-min Rain = 0
KDO2 180000Z 32006KT 15/04 A3005 RMK A01 T01450043  RH  050%=      5-min Rain = 0
KDO2 180001Z 32006KT 14/04 A3005 RMK A01 T01440043  RH  051%=      5-min Rain = 0
KDO2 180002Z 32006KT 14/04 A3005 RMK A01 T01430043  RH  051%=      5-min Rain = 0
KDO2 180003Z 32006KT 14/04 A3005 RMK A01 T01420043  RH  051%=      5-min Rain = 0
KDO2 180004Z 32006KT 14/04 A3005 RMK A01 T01410043  RH  051%=      5-min Rain = 0
KDO2 180005Z 32006KT 14/04 A3005 RMK A01 T01410043  RH  052%=      5-min Rain = 0
KDO2 180006Z 32006KT 14/04 A3005 RMK A01 T01400043  RH  052%=      5-min Rain = 0
KDO2 180007Z 32006KT 14/04 A3005 RMK A01 T01390043  RH  052%=      5-min Rain = 0
KDO2 180008Z 32006KT 14/04 A3005 RMK A01 T01380043  RH  052%=      5-min Rain = 0
KDO2 180009Z 32006KT 14/04 A3005 RMK A01 T01380043  RH  053%=      5-min Rain = 0
KDO2 180010Z 32006KT 14/04 A3005 RMK A01 T01370043  RH  053%=      5-min Rain = 0
KDO2 180011Z 32006KT 14/04 A3005 RMK A01 T01360042  RH  053%=      5-min Rain = 0
KDO2 180012Z 32006KT 14/04 A3005 RMK A01 T01350042  RH  053%=      5-min Rain = 0
KDO2 180013Z 32006KT 13/04 A3005 RMK A01 T01340042  RH  054%=      5-min Rain = 0
KDO2 180014Z 32006KT 13/04 A3005 RMK A01 T01330042  RH  054%=      5-min Rain = 0
KDO2 180015Z 32006KT 13/04 A3005 RMK A01 T01320042  RH  054%=      5-min Rain = 0
KDO2 180016Z 32007KT 13/04 A3005 RMK A01 T01320042  RH  054%=      5-min Rain = 0
KDO2 180017Z 32007KT 13/04 A3005 RMK A01 T01310042  RH  055%=      5-min Rain = 0
KDO2 180018Z 32007KT 13/04 A3005 RMK A01 T01300042  RH  055%=      5-min Rain = 0
KDO2 180019Z 32006KT 13/04 A3005 RMK A01 T01300042  RH  055%=      5-min Rain = 0
KDO2 180020Z 32006KT 13/04 A3005 RMK A01 T01300042  RH  055%=      5-min Rain = 0
KDO2 180021Z 32006KT 13/04 A3005 RMK A01 T01300042  RH  055%=      5-min Rain = 0
KDO2 180022Z 32007KT 13/04 A3005 RMK A01 T01290042  RH  055%=      5-min Rain = 0
KDO2 180023Z 32007KT 13/04 A3006 RMK A01 T01290042  RH  056%=      5-min Rain = 0
KDO2 180024Z 32007KT 13/04 A3006 RMK A01 T01290042  RH  056%=      5-min Rain = 0
KDO2 180025Z 32007KT 13/04 A3006 RMK A01 T01280042  RH  056%=      5-min Rain = 0
KDO2 180026Z 32007KT 13/04 A3006 RMK A01 T01290043  RH  056%=      5-min Rain = 0
KDO2 180027Z 32007KT 13/04 A3006 RMK A01 T01280042  RH  056%=      5-min Rain = 0
KDO2 180028Z 32007KT 13/04 A3006 RMK A01 T01290043  RH  056%=      5-min Rain = 0
KDO2 180029Z 32007KT 13/04 A3006 RMK A01 T01290043  RH  056%=      5-min Rain = 0
KDO2 180030Z 32007KT 13/04 A3006 RMK A01 T01290043  RH  056%=      5-min Rain = 0
KDO2 180031Z 32007KT 13/04 A3006 RMK A01 T01290043  RH  056%=      5-min Rain = 0
KDO2 180032Z 32007KT 13/04 A3006 RMK A01 T01290043  RH  056%=      5-min Rain = 0
KDO2 180033Z 32007KT 13/04 A3006 RMK A01 T01280043  RH  056%=      5-min Rain = 0
KDO2 180034Z 32007KT 13/04 A3006 RMK A01 T01280044  RH  056%=      5-min Rain = 0
KDO2 180035Z 32007KT 13/04 A3006 RMK A01 T01280043  RH  056%=      5-min Rain = 0
KDO2 180036Z 32007KT 13/04 A3006 RMK A01 T01270043  RH  057%=      5-min Rain = 0
KDO2 180037Z 32007KT 13/04 A3006 RMK A01 T01270043  RH  057%=      5-min Rain = 0
KDO2 180038Z 32007KT 13/04 A3006 RMK A01 T01260043  RH  057%=      5-min Rain = 0
KDO2 180039Z 32007KT 13/04 A3006 RMK A01 T01260043  RH  057%=      5-min Rain = 0
KDO2 180040Z 32007KT 13/04 A3006 RMK A01 T01250042  RH  057%=      5-min Rain = 0
KDO2 180041Z 32007KT 13/04 A3006 RMK A01 T01250042  RH  057%=      5-min Rain = 0
KDO2 180042Z 32007KT 13/04 A3006 RMK A01 T01250042  RH  057%=      5-min Rain = 0
KDO2 180043Z 32008KT 13/04 A3006 RMK A01 T01250042  RH  057%=      5-min Rain = 0
KDO2 180044Z 32008KT 13/04 A3006 RMK A01 T01250042  RH  057%=      5-min Rain = 0
KDO2 180045Z 32007KT 12/04 A3006 RMK A01 T01240042  RH  057%=      5-min Rain = 0
KDO2 180046Z 32007KT 12/04 A3006 RMK A01 T01240042  RH  057%=      5-min Rain = 0
KDO2 180047Z 32007KT 12/04 A3006 RMK A01 T01230042  RH  057%=      5-min Rain = 0
KDO2 180048Z 31007KT 12/04 A3006 RMK A01 T01230041  RH  057%=      5-min Rain = 0
KDO2 180049Z 31007KT 12/04 A3006 RMK A01 T01230041  RH  058%=      5-min Rain = 0
KDO2 180050Z 31007KT 12/04 A3006 RMK A01 T01220041  RH  057%=      5-min Rain = 0
KDO2 180051Z 31007KT 12/04 A3006 RMK A01 T01230041  RH  057%=      5-min Rain = 0
KDO2 180052Z 31007KT 12/04 A3006 RMK A01 T01220040  RH  057%=      5-min Rain = 0
KDO2 180053Z 31007KT 12/04 A3007 RMK A01 T01220040  RH  057%=      5-min Rain = 0
KDO2 180054Z 31007KT 12/04 A3007 RMK A01 T01220039  RH  057%=      5-min Rain = 0
KDO2 180055Z 31007KT 12/04 A3006 RMK A01 T01210039  RH  057%=      5-min Rain = 0
KDO2 180056Z 31007KT 12/04 A3006 RMK A01 T01210039  RH  057%=      5-min Rain = 0
KDO2 180057Z 31006KT 12/04 A3006 RMK A01 T01210039  RH  057%=      5-min Rain = 0
KDO2 180058Z 31006KT 12/04 A3006 RMK A01 T01200038  RH  057%=      5-min Rain = 0
KDO2 180059Z 31006KT 12/04 A3006 RMK A01 T01190038  RH  057%=      5-min Rain = 0
KDO2 180100Z 31006KT 12/04 A3006 RMK A01 T01190038  RH  058%=      5-min Rain = 0
KDO2 180101Z 30006KT 12/04 A3006 RMK A01 T01180037  RH  058%=      5-min Rain = 0
KDO2 180102Z 30006KT 12/04 A3006 RMK A01 T01160037  RH  058%=      5-min Rain = 0
KDO2 180103Z 30006KT 12/04 A3006 RMK A01 T01150037  RH  058%=      5-min Rain = 0
KDO2 180104Z 30006KT 11/04 A3006 RMK A01 T01140036  RH  059%=      5-min Rain = 0
KDO2 180105Z 30007KT 11/04 A3006 RMK A01 T01130036  RH  059%=      5-min Rain = 0
KDO2 180106Z 30007KT 11/04 A3006 RMK A01 T01110036  RH  060%=      5-min Rain = 0
KDO2 180107Z 30007KT 11/04 A3006 RMK A01 T01090036  RH  060%=      5-min Rain = 0
KDO2 180108Z 30007KT 11/04 A3007 RMK A01 T01080035  RH  061%=      5-min Rain = 0
KDO2 180109Z 30007KT 11/04 A3007 RMK A01 T01070035  RH  061%=      5-min Rain = 0
KDO2 180110Z 30007KT 11/04 A3006 RMK A01 T01050035  RH  062%=      5-min Rain = 0
KDO2 180111Z 30007KT 10/04 A3006 RMK A01 T01040035  RH  062%=      5-min Rain = 0
KDO2 180112Z 30007KT 10/04 A3006 RMK A01 T01040035  RH  063%=      5-min Rain = 0
KDO2 180113Z 30007KT 10/04 A3006 RMK A01 T01040036  RH  063%=      5-min Rain = 0
KDO2 180114Z 30007KT 10/04 A3006 RMK A01 T01030036  RH  063%=      5-min Rain = 0
KDO2 180115Z 30007KT 10/04 A3007 RMK A01 T01030036  RH  063%=      5-min Rain = 0
KDO2 180116Z 30007KT 10/04 A3007 RMK A01 T01030036  RH  063%=      5-min Rain = 0
KDO2 180117Z 30007KT 10/04 A3007 RMK A01 T01030036  RH  063%=      5-min Rain = 0
KDO2 180118Z 30007KT 10/04 A3007 RMK A01 T01020036  RH  063%=      5-min Rain = 0
KDO2 180119Z 30007KT 10/04 A3007 RMK A01 T01020036  RH  064%=      5-min Rain = 0
KDO2 180120Z 30007KT 10/04 A3007 RMK A01 T01010036  RH  064%=      5-min Rain = 0
KDO2 180121Z 31007KT 10/04 A3007 RMK A01 T01010036  RH  064%=      5-min Rain = 0
KDO2 180122Z 31007KT 10/04 A3007 RMK A01 T01010036  RH  064%=      5-min Rain = 0
KDO2 180123Z 31007KT 10/04 A3007 RMK A01 T01000036  RH  064%=      5-min Rain = 0
KDO2 180124Z 31007KT 10/04 A3007 RMK A01 T01000036  RH  064%=      5-min Rain = 0
KDO2 180125Z 31007KT 10/04 A3007 RMK A01 T01010036  RH  064%=      5-min Rain = 0
KDO2 180126Z 31006KT 10/04 A3007 RMK A01 T01020037  RH  064%=      5-min Rain = 0
KDO2 180127Z 31006KT 10/04 A3007 RMK A01 T01020037  RH  064%=      5-min Rain = 0
KDO2 180128Z 31006KT 10/04 A3007 RMK A01 T01030037  RH  064%=      5-min Rain = 0
KDO2 180129Z 31007KT 10/04 A3007 RMK A01 T01030037  RH  064%=      5-min Rain = 0
KDO2 180130Z 31007KT 10/04 A3007 RMK A01 T01030037  RH  063%=      5-min Rain = 0
KDO2 180131Z 31007KT 10/04 A3007 RMK A01 T01030037  RH  063%=      5-min Rain = 0
KDO2 180132Z 31007KT 10/04 A3007 RMK A01 T01030037  RH  063%=      5-min Rain = 0
KDO2 180133Z 31007KT 10/04 A3007 RMK A01 T01030037  RH  063%=      5-min Rain = 0
KDO2 180134Z 31007KT 10/04 A3007 RMK A01 T01040037  RH  063%=      5-min Rain = 0
KDO2 180135Z 31007KT 10/04 A3007 RMK A01 T01030037  RH  064%=      5-min Rain = 0
KDO2 180136Z 31007KT 10/04 A3007 RMK A01 T01040037  RH  064%=      5-min Rain = 0
KDO2 180137Z 31007KT 10/04 A3007 RMK A01 T01030037  RH  064%=      5-min Rain = 0
KDO2 180138Z 31006KT 10/04 A3007 RMK A01 T01030037  RH  063%=      5-min Rain = 0
KDO2 180139Z 31006KT 10/04 A3007 RMK A01 T01030037  RH  063%=      5-min Rain = 0
KDO2 180140Z 31007KT 10/04 A3007 RMK A01 T01030037  RH  063%=      5-min Rain = 0
KDO2 180141Z 31007KT 10/04 A3007 RMK A01 T01030037  RH  064%=      5-min Rain = 0
KDO2 180142Z 31007KT 10/04 A3008 RMK A01 T01030036  RH  064%=      5-min Rain = 0
KDO2 180143Z 31007KT 10/04 A3008 RMK A01 T01020036  RH  064%=      5-min Rain = 0
KDO2 180144Z 31007KT 10/04 A3008 RMK A01 T01020036  RH  064%=      5-min Rain = 0
KDO2 180145Z 31007KT 10/04 A3008 RMK A01 T01010036  RH  064%=      5-min Rain = 0
KDO2 180146Z 31007KT 10/04 A3008 RMK A01 T01010036  RH  064%=      5-min Rain = 0
KDO2 180147Z 31007KT 10/04 A3008 RMK A01 T01000036  RH  064%=      5-min Rain = 0
KDO2 180148Z 31007KT 10/04 A3008 RMK A01 T01000035  RH  064%=      5-min Rain = 0
KDO2 180149Z 31007KT 10/04 A3008 RMK A01 T00990035  RH  064%=      5-min Rain = 0
KDO2 180150Z 31007KT 10/04 A3008 RMK A01 T00980035  RH  065%=      5-min Rain = 0
KDO2 180151Z 31007KT 10/04 A3008 RMK A01 T00980035  RH  065%=      5-min Rain = 0
KDO2 180152Z 31007KT 10/04 A3008 RMK A01 T00980035  RH  065%=      5-min Rain = 0
KDO2 180153Z 31007KT 10/04 A3008 RMK A01 T00970035  RH  065%=      5-min Rain = 0
KDO2 180154Z 31007KT 10/04 A3008 RMK A01 T00970035  RH  065%=      5-min Rain = 0
KDO2 180155Z 31006KT 10/04 A3008 RMK A01 T00970035  RH  065%=      5-min Rain = 0
KDO2 180156Z 31006KT 10/04 A3008 RMK A01 T00970035  RH  065%=      5-min Rain = 0
KDO2 180157Z 31006KT 10/04 A3008 RMK A01 T00970035  RH  065%=      5-min Rain = 0
KDO2 180158Z 30006KT 10/03 A3008 RMK A01 T00970034  RH  065%=      5-min Rain = 0
KDO2 180159Z 30006KT 10/03 A3008 RMK A01 T00970034  RH  065%=      5-min Rain = 0
KDO2 180200Z 30006KT 10/03 A3008 RMK A01 T00970034  RH  065%=      5-min Rain = 0
KDO2 180201Z 30006KT 10/03 A3008 RMK A01 T00960034  RH  065%=      5-min Rain = 0
KDO2 180202Z 30006KT 10/03 A3008 RMK A01 T00960034  RH  065%=      5-min Rain = 0
KDO2 180203Z 30005KT 10/03 A3008 RMK A01 T00950034  RH  065%=      5-min Rain = 0
KDO2 180204Z 30005KT 10/03 A3008 RMK A01 T00950034  RH  066%=      5-min Rain = 0
KDO2 180205Z 30005KT 09/03 A3008 RMK A01 T00940033  RH  066%=      5-min Rain = 0
KDO2 180206Z 30004KT 09/03 A3008 RMK A01 T00940033  RH  066%=      5-min Rain = 0
KDO2 180207Z 30004KT 09/03 A3008 RMK A01 T00930032  RH  066%=      5-min Rain = 0
KDO2 180208Z 30004KT 09/03 A3008 RMK A01 T00910032  RH  066%=      5-min Rain = 0
KDO2 180209Z 29004KT 09/03 A3008 RMK A01 T00900032  RH  067%=      5-min Rain = 0
KDO2 180210Z 29004KT 09/03 A3008 RMK A01 T00890031  RH  067%=      5-min Rain = 0
KDO2 180211Z 29005KT 09/03 A3008 RMK A01 T00880031  RH  067%=      5-min Rain = 0
KDO2 180212Z 30005KT 09/03 A3008 RMK A01 T00870031  RH  068%=      5-min Rain = 0
KDO2 180213Z 30005KT 09/03 A3008 RMK A01 T00860031  RH  068%=      5-min Rain = 0
KDO2 180214Z 30005KT 09/03 A3008 RMK A01 T00860031  RH  068%=      5-min Rain = 0
KDO2 180215Z 30005KT 09/03 A3008 RMK A01 T00850030  RH  068%=      5-min Rain = 0
KDO2 180216Z 30005KT 08/03 A3008 RMK A01 T00840029  RH  068%=      5-min Rain = 0
KDO2 180217Z 30004KT 08/03 A3008 RMK A01 T00840030  RH  069%=      5-min Rain = 0
KDO2 180218Z 30004KT 08/03 A3008 RMK A01 T00830030  RH  069%=      5-min Rain = 0
KDO2 180219Z 30003KT 08/03 A3008 RMK A01 T00830029  RH  069%=      5-min Rain = 0
KDO2 180220Z 29003KT 08/03 A3008 RMK A01 T00820029  RH  069%=      5-min Rain = 0
KDO2 180221Z 29003KT 08/03 A3008 RMK A01 T00820029  RH  070%=      5-min Rain = 0
KDO2 180222Z 29003KT 08/03 A3008 RMK A01 T00810030  RH  070%=      5-min Rain = 0
KDO2 180223Z 28003KT 08/03 A3008 RMK A01 T00820031  RH  070%=      5-min Rain = 0
KDO2 180224Z 29003KT 08/03 A3008 RMK A01 T00820031  RH  070%=      5-min Rain = 0
KDO2 180225Z 29003KT 08/03 A3008 RMK A01 T00840032  RH  070%=      5-min Rain = 0
KDO2 180226Z 29003KT 09/03 A3008 RMK A01 T00850032  RH  069%=      5-min Rain = 0
KDO2 180227Z 29003KT 09/03 A3008 RMK A01 T00860032  RH  069%=      5-min Rain = 0
KDO2 180228Z 29003KT 09/03 A3008 RMK A01 T00870032  RH  068%=      5-min Rain = 0
KDO2 180229Z 28004KT 09/03 A3008 RMK A01 T00890032  RH  068%=      5-min Rain = 0
KDO2 180230Z 28003KT 09/03 A3008 RMK A01 T00900032  RH  067%=      5-min Rain = 0
KDO2 180231Z 27003KT 09/03 A3008 RMK A01 T00900032  RH  067%=      5-min Rain = 0
KDO2 180232Z 26003KT 09/03 A3008 RMK A01 T00910032  RH  066%=      5-min Rain = 0
KDO2 180233Z 25003KT 09/03 A3009 RMK A01 T00910031  RH  066%=      5-min Rain = 0
KDO2 180234Z 25003KT 09/03 A3009 RMK A01 T00910030  RH  065%=      5-min Rain = 0
KDO2 180235Z 25003KT 09/03 A3009 RMK A01 T00900027  RH  065%=      5-min Rain = 0
KDO2 180236Z 26004KT 09/03 A3009 RMK A01 T00870025  RH  065%=      5-min Rain = 0
KDO2 180237Z 27004KT 08/03 A3009 RMK A01 T00840025  RH  066%=      5-min Rain = 0
KDO2 180238Z 27004KT 08/03 A3009 RMK A01 T00820025  RH  067%=      5-min Rain = 0
KDO2 180239Z 27004KT 08/03 A3009 RMK A01 T00810026  RH  068%=      5-min Rain = 0
KDO2 180240Z 28004KT 08/03 A3009 RMK A01 T00810027  RH  068%=      5-min Rain = 0
KDO2 180241Z 28003KT 08/03 A3009 RMK A01 T00810027  RH  068%=      5-min Rain = 0
KDO2 180242Z 29004KT 08/03 A3009 RMK A01 T00810027  RH  069%=      5-min Rain = 0
KDO2 180243Z 29004KT 08/03 A3009 RMK A01 T00820028  RH  069%=      5-min Rain = 0
KDO2 180244Z 29004KT 08/03 A3009 RMK A01 T00840029  RH  068%=      5-min Rain = 0
KDO2 180245Z 29004KT 09/03 A3009 RMK A01 T00860029  RH  067%=      5-min Rain = 0
KDO2 180246Z 29004KT 09/03 A3009 RMK A01 T00870029  RH  067%=      5-min Rain = 0
KDO2 180247Z 29004KT 09/03 A3009 RMK A01 T00880029  RH  066%=      5-min Rain = 0
KDO2 180248Z 29004KT 09/03 A3009 RMK A01 T00890029  RH  066%=      5-min Rain = 0
KDO2 180249Z 29004KT 09/03 A301 RMK A01 T00890029  RH  066%=      5-min Rain = 0
KDO2 180250Z 29004KT 09/03 A301 RMK A01 T00890028  RH  066%=      5-min Rain = 0
KDO2 180251Z 29004KT 09/03 A301 RMK A01 T00890028  RH  066%=      5-min Rain = 0
KDO2 180252Z 29004KT 09/03 A301 RMK A01 T00890028  RH  066%=      5-min Rain = 0
KDO2 180253Z 30004KT 09/03 A301 RMK A01 T00880028  RH  066%=      5-min Rain = 0
KDO2 180254Z 30004KT 09/03 A301 RMK A01 T00870028  RH  066%=      5-min Rain = 0
KDO2 180255Z 30004KT 09/03 A301 RMK A01 T00870028  RH  066%=      5-min Rain = 0
KDO2 180256Z 31004KT 09/03 A301 RMK A01 T00870028  RH  066%=      5-min Rain = 0
KDO2 180257Z 31004KT 09/03 A301 RMK A01 T00870028  RH  066%=      5-min Rain = 0
KDO2 180258Z 31004KT 09/03 A3009 RMK A01 T00870028  RH  067%=      5-min Rain = 0
KDO2 180259Z 31003KT 09/03 A3009 RMK A01 T00870028  RH  067%=      5-min Rain = 0
KDO2 180300Z 31003KT 09/03 A3009 RMK A01 T00860028  RH  067%=      5-min Rain = 0
KDO2 180301Z 31002KT 09/03 A3009 RMK A01 T00860028  RH  067%=      5-min Rain = 0
KDO2 180302Z 32002KT 09/03 A3009 RMK A01 T00860029  RH  067%=      5-min Rain = 0
KDO2 180303Z 31001KT 09/03 A3009 RMK A01 T00870029  RH  067%=      5-min Rain = 0
KDO2 180304Z 30001KT 09/03 A3009 RMK A01 T00880029  RH  066%=      5-min Rain = 0
KDO2 180305Z 28001KT 09/03 A3009 RMK A01 T00870026  RH  065%=      5-min Rain = 0
KDO2 180306Z 27001KT 08/02 A3009 RMK A01 T00820022  RH  066%=      5-min Rain = 0
KDO2 180307Z 27002KT 08/02 A301 RMK A01 T00780022  RH  068%=      5-min Rain = 0
KDO2 180308Z 27003KT 08/03 A301 RMK A01 T00780026  RH  069%=      5-min Rain = 0
KDO2 180309Z 27003KT 08/03 A301 RMK A01 T00790025  RH  069%=      5-min Rain = 0
KDO2 180310Z 27003KT 08/03 A301 RMK A01 T00780026  RH  069%=      5-min Rain = 0
KDO2 180311Z 28004KT 08/03 A301 RMK A01 T00800027  RH  069%=      5-min Rain = 0
KDO2 180312Z 28003KT 08/03 A301 RMK A01 T00800025  RH  068%=      5-min Rain = 0
KDO2 180313Z 27003KT 08/03 A301 RMK A01 T00790027  RH  069%=      5-min Rain = 0
KDO2 180314Z 27003KT 08/03 A301 RMK A01 T00810027  RH  069%=      5-min Rain = 0
KDO2 180315Z 28003KT 08/03 A301 RMK A01 T00810027  RH  069%=      5-min Rain = 0
KDO2 180316Z 28003KT 08/03 A301 RMK A01 T00810027  RH  069%=      5-min Rain = 0
KDO2 180317Z 28003KT 08/03 A301 RMK A01 T00820027  RH  068%=      5-min Rain = 0
KDO2 180318Z 29003KT 08/03 A301 RMK A01 T00830027  RH  068%=      5-min Rain = 0
KDO2 180319Z 28003KT 08/03 A301 RMK A01 T00830027  RH  068%=      5-min Rain = 0
KDO2 180320Z 29003KT 08/03 A301 RMK A01 T00820026  RH  068%=      5-min Rain = 0
KDO2 180321Z 30003KT 08/03 A301 RMK A01 T00810027  RH  068%=      5-min Rain = 0
KDO2 180322Z 31003KT 08/03 A301 RMK A01 T00810027  RH  069%=      5-min Rain = 0
KDO2 180323Z 31002KT 08/03 A301 RMK A01 T00820028  RH  068%=      5-min Rain = 0
KDO2 180324Z 30003KT 08/03 A301 RMK A01 T00840027  RH  068%=      5-min Rain = 0
KDO2 180325Z 30003KT 08/03 A301 RMK A01 T00840027  RH  067%=      5-min Rain = 0
KDO2 180326Z 30003KT 08/03 A3011 RMK A01 T00840027  RH  067%=      5-min Rain = 0
KDO2 180327Z 30003KT 09/03 A3011 RMK A01 T00850027  RH  067%=      5-min Rain = 0
KDO2 180328Z 29003KT 09/03 A301 RMK A01 T00860028  RH  067%=      5-min Rain = 0
KDO2 180329Z 30003KT 09/03 A301 RMK A01 T00860028  RH  067%=      5-min Rain = 0
KDO2 180330Z 30002KT 09/03 A301 RMK A01 T00860027  RH  066%=      5-min Rain = 0
KDO2 180331Z 31002KT 09/03 A301 RMK A01 T00860027  RH  066%=      5-min Rain = 0
KDO2 180332Z 31002KT 09/03 A301 RMK A01 T00850026  RH  066%=      5-min Rain = 0
KDO2 180333Z 31002KT 08/03 A301 RMK A01 T00840026  RH  067%=      5-min Rain = 0
KDO2 180334Z 31003KT 08/03 A301 RMK A01 T00830026  RH  067%=      5-min Rain = 0
KDO2 180335Z 31003KT 08/03 A301 RMK A01 T00840027  RH  068%=      5-min Rain = 0
KDO2 180336Z 32003KT 08/03 A301 RMK A01 T00840027  RH  067%=      5-min Rain = 0
KDO2 180337Z 33003KT 09/03 A301 RMK A01 T00850028  RH  067%=      5-min Rain = 0
KDO2 180338Z 34003KT 09/03 A301 RMK A01 T00850027  RH  067%=      5-min Rain = 0
KDO2 180339Z 34003KT 09/03 A3009 RMK A01 T00860028  RH  067%=      5-min Rain = 0
KDO2 180340Z 34004KT 09/03 A301 RMK A01 T00870029  RH  067%=      5-min Rain = 0
KDO2 180341Z 33003KT 09/03 A301 RMK A01 T00880029  RH  066%=      5-min Rain = 0
KDO2 180342Z 32003KT 09/03 A301 RMK A01 T00880029  RH  066%=      5-min Rain = 0
KDO2 180343Z 33003KT 09/03 A301 RMK A01 T00890030  RH  066%=      5-min Rain = 0
KDO2 180344Z 34003KT 09/03 A301 RMK A01 T00900030  RH  066%=      5-min Rain = 0
KDO2 180345Z 35002KT 09/03 A3009 RMK A01 T00900029  RH  066%=      5-min Rain = 0
KDO2 180346Z 35003KT 09/03 A3009 RMK A01 T00900029  RH  066%=      5-min Rain = 0
KDO2 180347Z 34003KT 09/03 A3009 RMK A01 T00900029  RH  066%=      5-min Rain = 0
KDO2 180348Z 32003KT 09/03 A301 RMK A01 T00890029  RH  066%=      5-min Rain = 0
KDO2 180349Z 31003KT 09/03 A301 RMK A01 T00890030  RH  066%=      5-min Rain = 0
KDO2 180350Z 30003KT 09/03 A301 RMK A01 T00890030  RH  066%=      5-min Rain = 0
KDO2 180351Z 29003KT 09/03 A301 RMK A01 T00880029  RH  066%=      5-min Rain = 0
KDO2 180352Z 30003KT 09/03 A301 RMK A01 T00850027  RH  067%=      5-min Rain = 0
KDO2 180353Z 30003KT 08/03 A301 RMK A01 T00840028  RH  068%=      5-min Rain = 0
KDO2 180354Z 31003KT 09/03 A301 RMK A01 T00850030  RH  068%=      5-min Rain = 0
KDO2 180355Z 30005KT 09/03 A301 RMK A01 T00860030  RH  068%=      5-min Rain = 0
KDO2 180356Z 30005KT 09/03 A301 RMK A01 T00870029  RH  067%=      5-min Rain = 0
KDO2 180357Z 30005KT 08/03 A301 RMK A01 T00840026  RH  067%=      5-min Rain = 0
KDO2 180358Z 30004KT 08/02 A301 RMK A01 T00800023  RH  067%=      5-min Rain = 0
KDO2 180359Z 30003KT 08/02 A3009 RMK A01 T00760022  RH  068%=      5-min Rain = 0
KDO2 180400Z 31003KT 07/02 A3009 RMK A01 T00740023  RH  070%=      5-min Rain = 0
KDO2 180401Z 30003KT 07/02 A3009 RMK A01 T00740024  RH  071%=      5-min Rain = 0
KDO2 180402Z 30002KT 07/02 A3009 RMK A01 T00730024  RH  071%=      5-min Rain = 0
KDO2 180403Z 28002KT 07/02 A3009 RMK A01 T00730024  RH  071%=      5-min Rain = 0
KDO2 180404Z 28003KT 07/03 A3009 RMK A01 T00730025  RH  071%=      5-min Rain = 0
KDO2 180405Z 27003KT 07/03 A3009 RMK A01 T00740025  RH  071%=      5-min Rain = 0
KDO2 180406Z 28003KT 07/03 A3009 RMK A01 T00740025  RH  071%=      5-min Rain = 0
KDO2 180407Z 27003KT 07/02 A3009 RMK A01 T00740024  RH  071%=      5-min Rain = 0
KDO2 180408Z 27003KT 07/02 A3009 RMK A01 T00730023  RH  071%=      5-min Rain = 0
KDO2 180409Z 28003KT 07/02 A3009 RMK A01 T00700022  RH  071%=      5-min Rain = 0
KDO2 180410Z 29003KT 07/02 A3009 RMK A01 T00680021  RH  072%=      5-min Rain = 0
KDO2 180411Z 29003KT 07/02 A3009 RMK A01 T00660021  RH  073%=      5-min Rain = 0
KDO2 180412Z 29003KT 07/02 A3009 RMK A01 T00650021  RH  074%=      5-min Rain = 0
KDO2 180413Z 29003KT 07/02 A3009 RMK A01 T00650022  RH  074%=      5-min Rain = 0
KDO2 180414Z 29004KT 07/02 A3009 RMK A01 T00650022  RH  074%=      5-min Rain = 0
KDO2 180415Z 30004KT 07/02 A3009 RMK A01 T00660023  RH  074%=      5-min Rain = 0
KDO2 180416Z 30004KT 07/02 A3008 RMK A01 T00670023  RH  074%=      5-min Rain = 0
KDO2 180417Z 31004KT 07/02 A3008 RMK A01 T00670024  RH  074%=      5-min Rain = 0
KDO2 180418Z 31004KT 07/02 A3008 RMK A01 T00680024  RH  073%=      5-min Rain = 0
KDO2 180419Z 31004KT 07/02 A3008 RMK A01 T00690024  RH  073%=      5-min Rain = 0
KDO2 180420Z 31004KT 07/03 A3008 RMK A01 T00700025  RH  073%=      5-min Rain = 0
KDO2 180421Z 31005KT 07/02 A3009 RMK A01 T00710024  RH  072%=      5-min Rain = 0
KDO2 180422Z 32005KT 07/02 A3009 RMK A01 T00690021  RH  071%=      5-min Rain = 0
KDO2 180423Z 32004KT 07/02 A3008 RMK A01 T00660020  RH  072%=      5-min Rain = 0
KDO2 180424Z 33004KT 06/02 A3008 RMK A01 T00640020  RH  074%=      5-min Rain = 0
KDO2 180425Z 33004KT 06/02 A3008 RMK A01 T00630021  RH  075%=      5-min Rain = 0
KDO2 180426Z 32004KT 06/02 A3008 RMK A01 T00620022  RH  075%=      5-min Rain = 0
KDO2 180427Z 32004KT 06/02 A3009 RMK A01 T00620022  RH  076%=      5-min Rain = 0
KDO2 180428Z 32004KT 06/02 A3009 RMK A01 T00630023  RH  076%=      5-min Rain = 0
KDO2 180429Z 31004KT 07/03 A3009 RMK A01 T00650025  RH  076%=      5-min Rain = 0
KDO2 180430Z 31003KT 07/02 A3009 RMK A01 T00650024  RH  075%=      5-min Rain = 0
KDO2 180431Z 32003KT 07/02 A3008 RMK A01 T00650024  RH  075%=      5-min Rain = 0
KDO2 180432Z 32003KT 07/02 A3008 RMK A01 T00650024  RH  075%=      5-min Rain = 0
KDO2 180433Z 32003KT 07/02 A3008 RMK A01 T00650024  RH  075%=      5-min Rain = 0
KDO2 180434Z 31003KT 07/02 A3009 RMK A01 T00650023  RH  075%=      5-min Rain = 0
KDO2 180435Z 31004KT 07/02 A3009 RMK A01 T00660023  RH  074%=      5-min Rain = 0
KDO2 180436Z 31004KT 07/02 A3009 RMK A01 T00660023  RH  074%=      5-min Rain = 0
KDO2 180437Z 31003KT 07/02 A3009 RMK A01 T00660023  RH  074%=      5-min Rain = 0
KDO2 180438Z 31002KT 07/02 A3009 RMK A01 T00660023  RH  074%=      5-min Rain = 0
KDO2 180439Z 32002KT 07/02 A3008 RMK A01 T00650022  RH  074%=      5-min Rain = 0
KDO2 180440Z 33002KT 07/02 A3008 RMK A01 T00650023  RH  074%=      5-min Rain = 0
KDO2 180441Z 32002KT 07/02 A3008 RMK A01 T00650023  RH  075%=      5-min Rain = 0
KDO2 180442Z 32002KT 07/02 A3008 RMK A01 T00660024  RH  075%=      5-min Rain = 0
KDO2 180443Z 31003KT 07/03 A3009 RMK A01 T00690025  RH  074%=      5-min Rain = 0
KDO2 180444Z 30003KT 07/03 A3009 RMK A01 T00710026  RH  073%=      5-min Rain = 0
KDO2 180445Z 30004KT 07/03 A3009 RMK A01 T00720026  RH  072%=      5-min Rain = 0
KDO2 180446Z 29003KT 07/03 A3009 RMK A01 T00740025  RH  071%=      5-min Rain = 0
KDO2 180447Z 29003KT 07/03 A3009 RMK A01 T00730025  RH  071%=      5-min Rain = 0
KDO2 180448Z 29003KT 07/02 A3008 RMK A01 T00720023  RH  071%=      5-min Rain = 0
KDO2 180449Z 29004KT 07/02 A3008 RMK A01 T00700022  RH  072%=      5-min Rain = 0
KDO2 180450Z 29004KT 07/02 A3008 RMK A01 T00680021  RH  072%=      5-min Rain = 0
KDO2 180451Z 28004KT 07/02 A3008 RMK A01 T00650020  RH  073%=      5-min Rain = 0
KDO2 180452Z 28005KT 06/02 A3009 RMK A01 T00640021  RH  074%=      5-min Rain = 0
KDO2 180453Z 28004KT 06/02 A3008 RMK A01 T00620020  RH  074%=      5-min Rain = 0
KDO2 180454Z 27003KT 06/02 A3008 RMK A01 T00610020  RH  075%=      5-min Rain = 0
KDO2 180455Z 27003KT 06/02 A3008 RMK A01 T00620021  RH  075%=      5-min Rain = 0
KDO2 180456Z 27003KT 06/02 A3008 RMK A01 T00640023  RH  075%=      5-min Rain = 0
KDO2 180457Z 26003KT 07/02 A3008 RMK A01 T00660024  RH  075%=      5-min Rain = 0
KDO2 180458Z 25003KT 07/02 A3008 RMK A01 T00670023  RH  073%=      5-min Rain = 0
KDO2 180459Z 23004KT 06/02 A3008 RMK A01 T00630017  RH  072%=      5-min Rain = 0
KDO2 180500Z 22004KT 06/01 A3008 RMK A01 T00570014  RH  074%=      5-min Rain = 0
KDO2 180501Z 22006KT 05/01 A3008 RMK A01 T00520014  RH  077%=      5-min Rain = 0
KDO2 180502Z 22006KT 05/02 A3008 RMK A01 T00510017  RH  079%=      5-min Rain = 0
KDO2 180503Z 22006KT 05/02 A3008 RMK A01 T00510019  RH  080%=      5-min Rain = 0
KDO2 180504Z 23006KT 05/02 A3008 RMK A01 T00510020  RH  080%=      5-min Rain = 0
KDO2 180505Z 24005KT 05/02 A3008 RMK A01 T00520020  RH  080%=      5-min Rain = 0
KDO2 180506Z 24005KT 05/02 A3008 RMK A01 T00520020  RH  080%=      5-min Rain = 0
KDO2 180507Z 25005KT 05/02 A3008 RMK A01 T00530022  RH  080%=      5-min Rain = 0
KDO2 180508Z 26005KT 05/02 A3008 RMK A01 T00540022  RH  080%=      5-min Rain = 0
KDO2 180509Z 26005KT 06/02 A3008 RMK A01 T00560023  RH  079%=      5-min Rain = 0
KDO2 180510Z 26004KT 06/02 A3008 RMK A01 T00570022  RH  078%=      5-min Rain = 0
KDO2 180511Z 26004KT 06/02 A3008 RMK A01 T00560022  RH  078%=      5-min Rain = 0
KDO2 180512Z 26004KT 06/02 A3008 RMK A01 T00560022  RH  079%=      5-min Rain = 0
KDO2 180513Z 25004KT 06/02 A3008 RMK A01 T00570023  RH  079%=      5-min Rain = 0
KDO2 180514Z 25004KT 06/02 A3008 RMK A01 T00570022  RH  078%=      5-min Rain = 0
KDO2 180515Z 25004KT 06/02 A3008 RMK A01 T00570022  RH  078%=      5-min Rain = 0
KDO2 180516Z 25004KT 06/02 A3009 RMK A01 T00570021  RH  078%=      5-min Rain = 0
KDO2 180517Z 25004KT 06/02 A3008 RMK A01 T00560021  RH  078%=      5-min Rain = 0
KDO2 180518Z 23003KT 06/02 A3008 RMK A01 T00560020  RH  078%=      5-min Rain = 0
KDO2 180519Z 23004KT 05/02 A3008 RMK A01 T00540019  RH  078%=      5-min Rain = 0
KDO2 180520Z 22004KT 05/02 A3008 RMK A01 T00520017  RH  078%=      5-min Rain = 0
KDO2 180521Z 22004KT 05/02 A3008 RMK A01 T00500017  RH  079%=      5-min Rain = 0
KDO2 180522Z 23005KT 05/02 A3008 RMK A01 T00490018  RH  080%=      5-min Rain = 0
KDO2 180523Z 24005KT 05/02 A3009 RMK A01 T00490019  RH  081%=      5-min Rain = 0
KDO2 180524Z 25005KT 05/02 A3008 RMK A01 T00500020  RH  081%=      5-min Rain = 0
KDO2 180525Z 25005KT 05/02 A3008 RMK A01 T00520022  RH  081%=      5-min Rain = 0
KDO2 180526Z 26005KT 05/02 A3008 RMK A01 T00530023  RH  081%=      5-min Rain = 0
KDO2 180527Z 27005KT 06/02 A3008 RMK A01 T00560024  RH  080%=      5-min Rain = 0
KDO2 180528Z 27004KT 06/02 A3008 RMK A01 T00570023  RH  079%=      5-min Rain = 0
KDO2 180529Z 27004KT 06/02 A3008 RMK A01 T00580023  RH  078%=      5-min Rain = 0
KDO2 180530Z 27004KT 06/02 A3008 RMK A01 T00580022  RH  078%=      5-min Rain = 0
KDO2 180531Z 27004KT 06/02 A3008 RMK A01 T00580022  RH  077%=      5-min Rain = 0
KDO2 180532Z 26004KT 06/02 A3008 RMK A01 T00570020  RH  077%=      5-min Rain = 0
KDO2 180533Z 24005KT 06/02 A3008 RMK A01 T00560020  RH  077%=      5-min Rain = 0
KDO2 180534Z 22006KT 06/02 A3008 RMK A01 T00550019  RH  078%=      5-min Rain = 0
KDO2 180535Z 20008KT 05/02 A3008 RMK A01 T00510016  RH  078%=      5-min Rain = 0
KDO2 180536Z 21009KT 05/02 A3008 RMK A01 T00490017  RH  080%=      5-min Rain = 0
KDO2 180537Z 21008KT 05/02 A3008 RMK A01 T00490020  RH  082%=      5-min Rain = 0
KDO2 180538Z 22007KT 05/02 A3008 RMK A01 T00510023  RH  082%=      5-min Rain = 0
KDO2 180539Z 22006KT 05/03 A3008 RMK A01 T00540025  RH  081%=      5-min Rain = 0
KDO2 180540Z 23005KT 06/03 A3008 RMK A01 T00560025  RH  081%=      5-min Rain = 0
KDO2 180541Z 24004KT 06/03 A3008 RMK A01 T00570025  RH  080%=      5-min Rain = 0
KDO2 180542Z 24004KT 06/03 A3008 RMK A01 T00590025  RH  079%=      5-min Rain = 0
KDO2 180543Z 24005KT 06/03 A3008 RMK A01 T00590025  RH  078%=      5-min Rain = 0
KDO2 180544Z 24005KT 06/02 A3008 RMK A01 T00590024  RH  078%=      5-min Rain = 0
KDO2 180545Z 24005KT 06/02 A3008 RMK A01 T00590023  RH  078%=      5-min Rain = 0
KDO2 180546Z 24005KT 06/02 A3008 RMK A01 T00590023  RH  078%=      5-min Rain = 0
KDO2 180547Z 25005KT 06/02 A3008 RMK A01 T00580022  RH  078%=      5-min Rain = 0
KDO2 180548Z 25005KT 06/02 A3008 RMK A01 T00580022  RH  078%=      5-min Rain = 0
KDO2 180549Z 26005KT 06/02 A3008 RMK A01 T00570022  RH  078%=      5-min Rain = 0
KDO2 180550Z 26005KT 06/02 A3008 RMK A01 T00570022  RH  078%=      5-min Rain = 0
KDO2 180551Z 27004KT 06/02 A3008 RMK A01 T00550021  RH  078%=      5-min Rain = 0
KDO2 180552Z 27004KT 06/02 A3008 RMK A01 T00550020  RH  078%=      5-min Rain = 0
KDO2 180553Z 27004KT 05/02 A3008 RMK A01 T00520017  RH  078%=      5-min Rain = 0
KDO2 180554Z 27003KT 05/02 A3009 RMK A01 T00490015  RH  079%=      5-min Rain = 0
KDO2 180555Z 27004KT 05/01 A3009 RMK A01 T00460014  RH  080%=      5-min Rain = 0
KDO2 180556Z 26005KT 04/01 A3009 RMK A01 T00440013  RH  081%=      5-min Rain = 0
KDO2 180557Z 25005KT 04/01 A3009 RMK A01 T00420014  RH  082%=      5-min Rain = 0
KDO2 180558Z 24005KT 04/02 A3008 RMK A01 T00420015  RH  083%=      5-min Rain = 0
KDO2 180559Z 24004KT 04/02 A3008 RMK A01 T00420016  RH  083%=      5-min Rain = 0

Page generated in 0.0698 seconds.